FDX48T KMCO-GOBD
Flight info
| Callsign | FDX48T |
|---|---|
| Flight time | 7h 30m |
| Altitude | 33000 |
| Route | MZULO3 LENDS M203 SNAGY 2960N 2957N 2950N 2945N 2842N 2740N 2434N ULTEM UR976 LUMPO R976 LIGOV |
| Aircraft | B77L/H-SDE1E2E3FGHIJ2J3J4J5M1RWXY/LB1D1 |
Departure
| Time | 2026-04-25 13:10 |
|---|---|
| Airport | Orlando International Airport (KMCO) |
Arrival
| Time | 2026-04-25 20:40 |
|---|---|
| Airport | Blaise Diagne International Airport (GOBD) |
| Time | Latitude | Longitude | Altitude | Speed | Heading |
|---|---|---|---|---|---|
| 2026-04-25 12:11 | 28.41473 | -81.33691 | 105 ft | 0 kts | 360° |
| 2026-04-25 12:28 | 28.41452 | -81.33695 | 104 ft | 4 kts | 50° |
| 2026-04-25 12:29 | 28.41444 | -81.33721 | 104 ft | 4 kts | 89° |
| 2026-04-25 12:29 | 28.41444 | -81.33730 | 103 ft | 0 kts | 91° |
| 2026-04-25 12:34 | 28.41417 | -81.33697 | 103 ft | 13 kts | 136° |
| 2026-04-25 12:34 | 28.41399 | -81.33612 | 106 ft | 9 kts | 85° |
| 2026-04-25 12:34 | 28.41403 | -81.33548 | 105 ft | 8 kts | 86° |
| 2026-04-25 12:34 | 28.41405 | -81.33499 | 107 ft | 11 kts | 86° |
| 2026-04-25 12:35 | 28.41405 | -81.33453 | 108 ft | 5 kts | 95° |
| 2026-04-25 12:35 | 28.41405 | -81.33398 | 107 ft | 9 kts | 89° |
| 2026-04-25 12:35 | 28.41405 | -81.33334 | 108 ft | 5 kts | 89° |
| 2026-04-25 12:35 | 28.41405 | -81.33320 | 108 ft | 3 kts | 90° |
| 2026-04-25 12:36 | 28.41405 | -81.33279 | 108 ft | 8 kts | 90° |
| 2026-04-25 12:36 | 28.41405 | -81.33195 | 109 ft | 13 kts | 90° |
| 2026-04-25 12:36 | 28.41405 | -81.33134 | 109 ft | 7 kts | 89° |
| 2026-04-25 12:36 | 28.41414 | -81.33061 | 111 ft | 11 kts | 68° |
| 2026-04-25 12:37 | 28.41443 | -81.33016 | 111 ft | 1 kts | 51° |
| 2026-04-25 12:37 | 28.41458 | -81.32995 | 110 ft | 6 kts | 46° |
| 2026-04-25 12:37 | 28.41471 | -81.32982 | 110 ft | 4 kts | 43° |
| 2026-04-25 12:37 | 28.41507 | -81.32944 | 109 ft | 10 kts | 43° |
| 2026-04-25 12:38 | 28.41536 | -81.32850 | 109 ft | 15 kts | 86° |
| 2026-04-25 12:38 | 28.41537 | -81.32799 | 110 ft | 6 kts | 89° |
| 2026-04-25 12:38 | 28.41537 | -81.32780 | 110 ft | 2 kts | 89° |
| 2026-04-25 12:38 | 28.41537 | -81.32779 | 113 ft | 0 kts | 89° |
| 2026-04-25 12:40 | 28.41538 | -81.32745 | 110 ft | 7 kts | 89° |
| 2026-04-25 12:40 | 28.41539 | -81.32689 | 111 ft | 7 kts | 88° |
| 2026-04-25 12:40 | 28.41540 | -81.32631 | 112 ft | 7 kts | 88° |
| 2026-04-25 12:40 | 28.41541 | -81.32566 | 111 ft | 9 kts | 89° |
| 2026-04-25 12:41 | 28.41541 | -81.32483 | 108 ft | 12 kts | 89° |
| 2026-04-25 12:41 | 28.41542 | -81.32384 | 106 ft | 13 kts | 89° |
| 2026-04-25 12:41 | 28.41542 | -81.32348 | 105 ft | 2 kts | 89° |
| 2026-04-25 12:41 | 28.41542 | -81.32347 | 105 ft | 0 kts | 89° |
| 2026-04-25 12:42 | 28.41542 | -81.32341 | 105 ft | 3 kts | 89° |
| 2026-04-25 12:42 | 28.41542 | -81.32333 | 105 ft | 4 kts | 89° |
| 2026-04-25 12:42 | 28.41542 | -81.32315 | 105 ft | 0 kts | 89° |
| 2026-04-25 12:44 | 28.41542 | -81.32302 | 105 ft | 6 kts | 89° |
| 2026-04-25 12:44 | 28.41543 | -81.32231 | 106 ft | 11 kts | 90° |
| 2026-04-25 12:44 | 28.41544 | -81.32070 | 105 ft | 3 kts | 89° |
| 2026-04-25 12:45 | 28.41544 | -81.32060 | 105 ft | 0 kts | 89° |
| 2026-04-25 12:46 | 28.41544 | -81.32056 | 105 ft | 4 kts | 89° |
| 2026-04-25 12:46 | 28.41552 | -81.32013 | 106 ft | 6 kts | 64° |
| 2026-04-25 12:47 | 28.41585 | -81.31984 | 104 ft | 6 kts | 17° |
| 2026-04-25 12:47 | 28.41628 | -81.31981 | 105 ft | 6 kts | 1° |
| 2026-04-25 12:47 | 28.41672 | -81.31980 | 106 ft | 6 kts | 0° |
| 2026-04-25 12:47 | 28.41715 | -81.31980 | 107 ft | 6 kts | 359° |
| 2026-04-25 12:48 | 28.41780 | -81.31981 | 107 ft | 15 kts | 359° |
| 2026-04-25 12:48 | 28.41885 | -81.31982 | 107 ft | 15 kts | 359° |
| 2026-04-25 12:48 | 28.41984 | -81.31983 | 108 ft | 5 kts | 359° |
| 2026-04-25 12:48 | 28.41997 | -81.31984 | 108 ft | 2 kts | 359° |
| 2026-04-25 12:49 | 28.42041 | -81.31984 | 109 ft | 8 kts | 359° |
| 2026-04-25 12:49 | 28.42095 | -81.31984 | 110 ft | 8 kts | 359° |
| 2026-04-25 12:49 | 28.42150 | -81.31985 | 111 ft | 8 kts | 360° |
| 2026-04-25 12:49 | 28.42204 | -81.31985 | 112 ft | 8 kts | 360° |
| 2026-04-25 12:50 | 28.42260 | -81.31978 | 112 ft | 9 kts | 356° |
| 2026-04-25 12:50 | 28.42323 | -81.31973 | 112 ft | 10 kts | 25° |
| 2026-04-25 12:50 | 28.42343 | -81.31940 | 110 ft | 3 kts | 72° |
| 2026-04-25 12:50 | 28.42346 | -81.31913 | 111 ft | 2 kts | 85° |
| 2026-04-25 12:51 | 28.42347 | -81.31887 | 112 ft | 4 kts | 88° |
| 2026-04-25 12:51 | 28.42347 | -81.31884 | 112 ft | 0 kts | 88° |
| 2026-04-25 12:52 | 28.42349 | -81.31819 | 111 ft | 21 kts | 88° |
| 2026-04-25 12:52 | 28.42349 | -81.31745 | 110 ft | 1 kts | 91° |
| 2026-04-25 12:52 | 28.42348 | -81.31726 | 110 ft | 3 kts | 91° |
| 2026-04-25 12:53 | 28.42348 | -81.31687 | 109 ft | 9 kts | 89° |
| 2026-04-25 12:53 | 28.42349 | -81.31610 | 107 ft | 10 kts | 89° |
| 2026-04-25 12:53 | 28.42349 | -81.31526 | 106 ft | 11 kts | 89° |
| 2026-04-25 12:53 | 28.42350 | -81.31442 | 105 ft | 11 kts | 89° |
| 2026-04-25 12:54 | 28.42351 | -81.31356 | 105 ft | 11 kts | 89° |
| 2026-04-25 12:54 | 28.42351 | -81.31273 | 104 ft | 11 kts | 91° |
| 2026-04-25 12:54 | 28.42341 | -81.31185 | 105 ft | 11 kts | 102° |
| 2026-04-25 12:54 | 28.42324 | -81.31101 | 106 ft | 11 kts | 96° |
| 2026-04-25 12:55 | 28.42317 | -81.31016 | 104 ft | 11 kts | 94° |
| 2026-04-25 12:55 | 28.42315 | -81.30987 | 104 ft | 11 kts | 93° |
| 2026-04-25 12:55 | 28.42323 | -81.30844 | 104 ft | 11 kts | 84° |
| 2026-04-25 12:55 | 28.42331 | -81.30758 | 110 ft | 11 kts | 84° |
| 2026-04-25 12:56 | 28.42338 | -81.30672 | 110 ft | 11 kts | 85° |
| 2026-04-25 12:56 | 28.42344 | -81.30586 | 109 ft | 11 kts | 85° |
| 2026-04-25 12:56 | 28.42349 | -81.30518 | 110 ft | 7 kts | 85° |
| 2026-04-25 12:56 | 28.42351 | -81.30482 | 110 ft | 0 kts | 85° |
| 2026-04-25 12:58 | 28.42352 | -81.30480 | 110 ft | 1 kts | 85° |
| 2026-04-25 12:58 | 28.42354 | -81.30442 | 105 ft | 10 kts | 85° |
| 2026-04-25 12:59 | 28.42357 | -81.30361 | 106 ft | 10 kts | 89° |
| 2026-04-25 12:59 | 28.42358 | -81.30281 | 109 ft | 10 kts | 89° |
| 2026-04-25 12:59 | 28.42360 | -81.30199 | 107 ft | 10 kts | 88° |
| 2026-04-25 12:59 | 28.42362 | -81.30118 | 108 ft | 10 kts | 89° |
| 2026-04-25 13:00 | 28.42362 | -81.30065 | 108 ft | 10 kts | 89° |
| 2026-04-25 13:00 | 28.42362 | -81.30011 | 108 ft | 10 kts | 89° |
| 2026-04-25 13:00 | 28.42363 | -81.29922 | 108 ft | 4 kts | 89° |
| 2026-04-25 13:00 | 28.42363 | -81.29893 | 108 ft | 0 kts | 89° |
| 2026-04-25 13:01 | 28.42364 | -81.29881 | 108 ft | 6 kts | 86° |
| 2026-04-25 13:01 | 28.42377 | -81.29834 | 106 ft | 0 kts | 61° |
| 2026-04-25 13:01 | 28.42379 | -81.29831 | 106 ft | 0 kts | 58° |
| 2026-04-25 13:01 | 28.42380 | -81.29829 | 106 ft | 0 kts | 62° |
| 2026-04-25 13:02 | 28.42381 | -81.29821 | 107 ft | 4 kts | 77° |
| 2026-04-25 13:02 | 28.42375 | -81.29785 | 107 ft | 5 kts | 105° |
| 2026-04-25 13:02 | 28.42367 | -81.29747 | 106 ft | 5 kts | 98° |
| 2026-04-25 13:02 | 28.42378 | -81.29709 | 107 ft | 5 kts | 43° |
| 2026-04-25 13:03 | 28.42415 | -81.29700 | 108 ft | 2 kts | 359° |
| 2026-04-25 13:03 | 28.42427 | -81.29701 | 107 ft | 0 kts | 358° |
| 2026-04-25 13:04 | 28.42459 | -81.29702 | 107 ft | 10 kts | 358° |
| 2026-04-25 13:04 | 28.42557 | -81.29705 | 107 ft | 19 kts | 358° |
| 2026-04-25 13:04 | 28.42647 | -81.29704 | 106 ft | 9 kts | 0° |
| 2026-04-25 13:05 | 28.42732 | -81.29703 | 107 ft | 13 kts | 360° |
| 2026-04-25 13:05 | 28.42825 | -81.29705 | 109 ft | 13 kts | 359° |
| 2026-04-25 13:05 | 28.42918 | -81.29707 | 110 ft | 13 kts | 359° |
| 2026-04-25 13:05 | 28.43011 | -81.29708 | 109 ft | 13 kts | 359° |
| 2026-04-25 13:06 | 28.43042 | -81.29708 | 108 ft | 5 kts | 359° |
| 2026-04-25 13:06 | 28.43112 | -81.29709 | 108 ft | 15 kts | 359° |
| 2026-04-25 13:06 | 28.43169 | -81.29710 | 109 ft | 8 kts | 359° |
| 2026-04-25 13:06 | 28.43231 | -81.29711 | 110 ft | 1 kts | 359° |
| 2026-04-25 13:07 | 28.43251 | -81.29711 | 111 ft | 3 kts | 359° |
| 2026-04-25 13:07 | 28.43304 | -81.29712 | 109 ft | 12 kts | 359° |
| 2026-04-25 13:07 | 28.43417 | -81.29713 | 110 ft | 18 kts | 359° |
| 2026-04-25 13:07 | 28.43510 | -81.29711 | 108 ft | 9 kts | 11° |
| 2026-04-25 13:08 | 28.43551 | -81.29656 | 108 ft | 4 kts | 76° |
| 2026-04-25 13:08 | 28.43535 | -81.29602 | 108 ft | 10 kts | 136° |
| 2026-04-25 13:08 | 28.43490 | -81.29588 | 110 ft | 0 kts | 179° |
| 2026-04-25 13:09 | 28.43338 | -81.29585 | 111 ft | 55 kts | 179° |
| 2026-04-25 13:09 | 28.42706 | -81.29578 | 105 ft | 125 kts | 179° |
| 2026-04-25 13:10 | 28.41632 | -81.29577 | 114 ft | 179 kts | 182° |
| 2026-04-25 13:10 | 28.40345 | -81.29564 | 572 ft | 188 kts | 178° |
| 2026-04-25 13:10 | 28.39028 | -81.29507 | 1150 ft | 190 kts | 175° |
| 2026-04-25 13:10 | 28.37744 | -81.29061 | 1488 ft | 204 kts | 145° |
| 2026-04-25 13:11 | 28.36547 | -81.27982 | 1507 ft | 238 kts | 146° |
| 2026-04-25 13:11 | 28.35110 | -81.26901 | 1517 ft | 253 kts | 149° |
| 2026-04-25 13:11 | 28.33669 | -81.25769 | 1506 ft | 250 kts | 141° |
| 2026-04-25 13:11 | 28.32658 | -81.24210 | 1512 ft | 249 kts | 108° |
| 2026-04-25 13:12 | 28.32624 | -81.22265 | 2197 ft | 250 kts | 79° |
| 2026-04-25 13:12 | 28.33128 | -81.20368 | 3019 ft | 254 kts | 69° |
| 2026-04-25 13:12 | 28.33820 | -81.18508 | 3869 ft | 257 kts | 66° |
| 2026-04-25 13:12 | 28.34299 | -81.17281 | 4493 ft | 257 kts | 65° |
| 2026-04-25 13:13 | 28.35278 | -81.14797 | 5652 ft | 260 kts | 65° |
| 2026-04-25 13:13 | 28.36018 | -81.12914 | 6495 ft | 262 kts | 65° |
| 2026-04-25 13:13 | 28.36755 | -81.11029 | 7225 ft | 268 kts | 65° |
| 2026-04-25 13:13 | 28.37516 | -81.09074 | 7943 ft | 273 kts | 65° |
| 2026-04-25 13:14 | 28.38286 | -81.07082 | 8687 ft | 278 kts | 65° |
| 2026-04-25 13:14 | 28.39066 | -81.05058 | 9457 ft | 282 kts | 65° |
| 2026-04-25 13:14 | 28.39855 | -81.03004 | 10183 ft | 286 kts | 64° |
| 2026-04-25 13:14 | 28.40654 | -81.00920 | 10891 ft | 289 kts | 64° |
| 2026-04-25 13:15 | 28.41461 | -80.98812 | 11593 ft | 293 kts | 64° |
| 2026-04-25 13:15 | 28.42275 | -80.96681 | 12295 ft | 296 kts | 64° |
| 2026-04-25 13:15 | 28.43100 | -80.94521 | 12999 ft | 300 kts | 64° |
| 2026-04-25 13:15 | 28.43933 | -80.92339 | 13649 ft | 304 kts | 64° |
| 2026-04-25 13:16 | 28.44777 | -80.90125 | 14290 ft | 307 kts | 64° |
| 2026-04-25 13:16 | 28.45632 | -80.87883 | 14901 ft | 311 kts | 64° |
| 2026-04-25 13:16 | 28.46483 | -80.85650 | 15518 ft | 314 kts | 64° |
| 2026-04-25 13:16 | 28.47322 | -80.83344 | 16115 ft | 318 kts | 69° |
| 2026-04-25 13:17 | 28.47916 | -80.80875 | 16531 ft | 332 kts | 76° |
| 2026-04-25 13:17 | 28.48296 | -80.78198 | 16666 ft | 354 kts | 81° |
| 2026-04-25 13:17 | 28.48596 | -80.75336 | 16841 ft | 375 kts | 82° |
| 2026-04-25 13:17 | 28.48893 | -80.72305 | 16995 ft | 396 kts | 82° |
| 2026-04-25 13:18 | 28.49211 | -80.69120 | 17164 ft | 416 kts | 82° |
| 2026-04-25 13:18 | 28.49554 | -80.65809 | 17477 ft | 428 kts | 81° |
| 2026-04-25 13:18 | 28.49916 | -80.62408 | 17971 ft | 437 kts | 81° |
| 2026-04-25 13:18 | 28.50291 | -80.58955 | 18555 ft | 442 kts | 81° |
| 2026-04-25 13:19 | 28.50671 | -80.55479 | 19190 ft | 444 kts | 81° |
| 2026-04-25 13:19 | 28.51055 | -80.51983 | 19825 ft | 448 kts | 81° |
| 2026-04-25 13:19 | 28.51439 | -80.48498 | 20372 ft | 452 kts | 81° |
| 2026-04-25 13:19 | 28.51702 | -80.46099 | 20748 ft | 455 kts | 81° |
| 2026-04-25 13:20 | 28.52221 | -80.41351 | 21537 ft | 459 kts | 81° |
| 2026-04-25 13:20 | 28.52616 | -80.37733 | 22123 ft | 462 kts | 81° |
| 2026-04-25 13:20 | 28.53012 | -80.34088 | 22695 ft | 466 kts | 81° |
| 2026-04-25 13:20 | 28.53533 | -80.30446 | 23242 ft | 468 kts | 75° |
| 2026-04-25 13:21 | 28.54404 | -80.26870 | 23750 ft | 470 kts | 69° |
| 2026-04-25 13:21 | 28.55624 | -80.23426 | 24228 ft | 470 kts | 63° |
| 2026-04-25 13:21 | 28.56989 | -80.20037 | 24748 ft | 472 kts | 63° |
| 2026-04-25 13:21 | 28.58302 | -80.16662 | 25262 ft | 474 kts | 64° |
| 2026-04-25 13:22 | 28.59616 | -80.13215 | 25822 ft | 475 kts | 65° |
| 2026-04-25 13:22 | 28.60922 | -80.09759 | 26375 ft | 476 kts | 65° |
| 2026-04-25 13:22 | 28.62229 | -80.06289 | 26863 ft | 478 kts | 65° |
| 2026-04-25 13:23 | 28.64871 | -79.99275 | 27726 ft | 485 kts | 65° |
| 2026-04-25 13:23 | 28.66204 | -79.95738 | 28167 ft | 488 kts | 65° |
| 2026-04-25 13:23 | 28.67543 | -79.92182 | 28611 ft | 490 kts | 65° |
| 2026-04-25 13:23 | 28.68888 | -79.88612 | 29036 ft | 492 kts | 65° |
| 2026-04-25 13:24 | 28.70237 | -79.85024 | 29445 ft | 494 kts | 65° |
| 2026-04-25 13:24 | 28.71589 | -79.81426 | 29935 ft | 494 kts | 65° |
| 2026-04-25 13:24 | 28.72937 | -79.77834 | 30455 ft | 492 kts | 65° |
| 2026-04-25 13:24 | 28.74263 | -79.74297 | 30891 ft | 491 kts | 65° |
| 2026-04-25 13:25 | 28.75603 | -79.70719 | 31280 ft | 491 kts | 65° |
| 2026-04-25 13:25 | 28.76944 | -79.67137 | 31673 ft | 491 kts | 65° |
| 2026-04-25 13:25 | 28.78282 | -79.63561 | 32067 ft | 491 kts | 65° |
| 2026-04-25 13:25 | 28.79617 | -79.59987 | 32462 ft | 490 kts | 65° |
| 2026-04-25 13:26 | 28.81056 | -79.56468 | 32849 ft | 489 kts | 60° |
| 2026-04-25 13:26 | 28.84817 | -79.49989 | 33003 ft | 491 kts | 51° |
| 2026-04-25 13:27 | 28.88810 | -79.43796 | 32985 ft | 484 kts | 52° |
| 2026-04-25 13:27 | 28.92740 | -79.37558 | 33001 ft | 484 kts | 53° |
| 2026-04-25 13:28 | 28.96659 | -79.31294 | 32998 ft | 486 kts | 53° |
| 2026-04-25 13:28 | 29.00590 | -79.25005 | 32996 ft | 487 kts | 53° |
| 2026-04-25 13:29 | 29.04524 | -79.18708 | 32997 ft | 487 kts | 53° |
| 2026-04-25 13:29 | 29.08460 | -79.12398 | 32993 ft | 488 kts | 53° |
| 2026-04-25 13:30 | 29.14331 | -79.02968 | 32999 ft | 487 kts | 53° |
| 2026-04-25 13:31 | 29.20223 | -78.93483 | 32997 ft | 487 kts | 53° |
| 2026-04-25 13:31 | 29.24141 | -78.87164 | 32996 ft | 487 kts | 53° |
| 2026-04-25 13:32 | 29.28053 | -78.80844 | 32996 ft | 486 kts | 53° |
| 2026-04-25 13:32 | 29.31935 | -78.74563 | 32998 ft | 486 kts | 53° |
| 2026-04-25 13:33 | 29.35733 | -78.68152 | 33000 ft | 487 kts | 59° |
| 2026-04-25 13:33 | 29.38485 | -78.61050 | 32998 ft | 489 kts | 71° |
| 2026-04-25 13:34 | 29.40335 | -78.53541 | 32999 ft | 491 kts | 78° |
| 2026-04-25 13:34 | 29.41298 | -78.45781 | 33002 ft | 492 kts | 81° |
| 2026-04-25 13:35 | 29.42248 | -78.38009 | 32997 ft | 492 kts | 81° |
| 2026-04-25 13:35 | 29.43226 | -78.30295 | 33000 ft | 492 kts | 81° |
| 2026-04-25 13:36 | 29.44214 | -78.22520 | 33001 ft | 493 kts | 81° |
| 2026-04-25 13:36 | 29.45196 | -78.14742 | 33000 ft | 493 kts | 81° |
| 2026-04-25 13:37 | 29.46171 | -78.06955 | 33000 ft | 493 kts | 81° |
| 2026-04-25 13:37 | 29.47142 | -77.99168 | 32999 ft | 493 kts | 81° |
| 2026-04-25 13:38 | 29.48101 | -77.91440 | 33005 ft | 493 kts | 81° |
| 2026-04-25 13:38 | 29.49062 | -77.83655 | 32999 ft | 493 kts | 81° |
| 2026-04-25 13:39 | 29.50018 | -77.75876 | 32998 ft | 492 kts | 81° |
| 2026-04-25 13:39 | 29.50971 | -77.68091 | 33000 ft | 492 kts | 81° |
| 2026-04-25 13:40 | 29.51919 | -77.60315 | 33000 ft | 492 kts | 81° |
| 2026-04-25 13:40 | 29.52857 | -77.52591 | 33004 ft | 492 kts | 81° |
| 2026-04-25 13:41 | 29.53795 | -77.44817 | 33003 ft | 492 kts | 81° |
| 2026-04-25 13:41 | 29.54731 | -77.37034 | 33005 ft | 492 kts | 81° |
| 2026-04-25 13:42 | 29.55661 | -77.29254 | 33002 ft | 492 kts | 81° |
| 2026-04-25 13:42 | 29.56587 | -77.21471 | 33005 ft | 492 kts | 82° |
| 2026-04-25 13:43 | 29.57508 | -77.13688 | 33008 ft | 492 kts | 82° |
| 2026-04-25 13:43 | 29.58425 | -77.05896 | 33010 ft | 492 kts | 82° |
| 2026-04-25 13:44 | 29.59331 | -76.98160 | 33004 ft | 492 kts | 82° |
| 2026-04-25 13:44 | 29.60240 | -76.90370 | 33011 ft | 492 kts | 82° |
| 2026-04-25 13:45 | 29.60948 | -76.82554 | 33001 ft | 492 kts | 88° |
| 2026-04-25 13:45 | 29.61120 | -76.74695 | 33010 ft | 492 kts | 89° |
| 2026-04-25 13:46 | 29.61249 | -76.66892 | 33009 ft | 492 kts | 88° |
| 2026-04-25 13:46 | 29.61417 | -76.59028 | 33003 ft | 493 kts | 88° |
| 2026-04-25 13:47 | 29.61610 | -76.51152 | 33004 ft | 493 kts | 88° |
| 2026-04-25 13:47 | 29.61806 | -76.43282 | 33012 ft | 493 kts | 88° |
| 2026-04-25 13:48 | 29.61983 | -76.35407 | 33015 ft | 493 kts | 89° |
| 2026-04-25 13:48 | 29.62158 | -76.27534 | 33016 ft | 493 kts | 88° |
| 2026-04-25 13:49 | 29.62338 | -76.19719 | 33015 ft | 493 kts | 88° |
| 2026-04-25 13:49 | 29.62515 | -76.11842 | 33012 ft | 493 kts | 89° |
| 2026-04-25 13:50 | 29.62686 | -76.03973 | 33020 ft | 493 kts | 89° |
| 2026-04-25 13:50 | 29.62850 | -75.96102 | 33018 ft | 492 kts | 89° |
| 2026-04-25 13:51 | 29.63009 | -75.88291 | 33019 ft | 492 kts | 89° |
| 2026-04-25 13:51 | 29.63164 | -75.80420 | 33024 ft | 492 kts | 89° |
| 2026-04-25 13:52 | 29.63314 | -75.72559 | 33021 ft | 492 kts | 89° |
| 2026-04-25 13:52 | 29.63460 | -75.64692 | 33019 ft | 492 kts | 89° |
| 2026-04-25 13:53 | 29.63601 | -75.56839 | 33024 ft | 492 kts | 89° |
| 2026-04-25 13:53 | 29.63737 | -75.48982 | 33017 ft | 492 kts | 89° |
| 2026-04-25 13:54 | 29.63868 | -75.41178 | 33016 ft | 491 kts | 89° |
| 2026-04-25 13:54 | 29.63995 | -75.33336 | 33018 ft | 491 kts | 89° |
| 2026-04-25 13:55 | 29.64117 | -75.25482 | 33014 ft | 491 kts | 89° |
| 2026-04-25 13:55 | 29.64235 | -75.17635 | 33019 ft | 491 kts | 89° |
| 2026-04-25 13:56 | 29.64348 | -75.09787 | 33018 ft | 491 kts | 89° |
| 2026-04-25 13:56 | 29.64455 | -75.01988 | 33017 ft | 491 kts | 89° |
| 2026-04-25 13:57 | 29.64559 | -74.94139 | 33018 ft | 491 kts | 89° |
| 2026-04-25 13:57 | 29.64658 | -74.86296 | 33020 ft | 491 kts | 89° |
| 2026-04-25 13:58 | 29.64753 | -74.78454 | 33018 ft | 491 kts | 89° |
| 2026-04-25 13:58 | 29.64843 | -74.70613 | 33022 ft | 491 kts | 89° |
| 2026-04-25 13:59 | 29.64927 | -74.62826 | 33027 ft | 490 kts | 89° |
| 2026-04-25 13:59 | 29.65008 | -74.54985 | 33027 ft | 490 kts | 89° |
| 2026-04-25 14:00 | 29.65072 | -74.48471 | 33027 ft | 490 kts | 89° |
| 2026-04-25 14:00 | 29.65156 | -74.39305 | 33032 ft | 490 kts | 89° |
| 2026-04-25 14:01 | 29.65223 | -74.31464 | 33032 ft | 491 kts | 89° |
| 2026-04-25 14:01 | 29.65284 | -74.23671 | 33029 ft | 491 kts | 89° |
| 2026-04-25 14:02 | 29.65342 | -74.15823 | 33031 ft | 491 kts | 89° |
| 2026-04-25 14:02 | 29.65395 | -74.07974 | 33029 ft | 491 kts | 90° |
| 2026-04-25 14:03 | 29.65444 | -74.00124 | 33034 ft | 491 kts | 90° |
| 2026-04-25 14:03 | 29.65487 | -73.92271 | 33031 ft | 491 kts | 90° |
| 2026-04-25 14:04 | 29.65526 | -73.84476 | 33032 ft | 491 kts | 90° |
| 2026-04-25 14:04 | 29.65561 | -73.76620 | 33035 ft | 491 kts | 90° |
| 2026-04-25 14:05 | 29.65591 | -73.68771 | 33036 ft | 491 kts | 90° |
| 2026-04-25 14:05 | 29.65617 | -73.60920 | 33030 ft | 491 kts | 90° |
| 2026-04-25 14:06 | 29.65637 | -73.53117 | 33037 ft | 491 kts | 90° |
| 2026-04-25 14:06 | 29.65653 | -73.45258 | 33036 ft | 492 kts | 90° |
| 2026-04-25 14:07 | 29.65665 | -73.37397 | 33036 ft | 492 kts | 90° |
| 2026-04-25 14:07 | 29.65672 | -73.29532 | 33032 ft | 492 kts | 90° |
| 2026-04-25 14:08 | 29.65674 | -73.21663 | 33038 ft | 492 kts | 90° |
| 2026-04-25 14:08 | 29.65672 | -73.13844 | 33039 ft | 493 kts | 90° |
| 2026-04-25 14:09 | 29.65664 | -73.05965 | 33038 ft | 493 kts | 90° |
| 2026-04-25 14:09 | 29.65653 | -72.98086 | 33039 ft | 493 kts | 90° |
| 2026-04-25 14:10 | 29.65637 | -72.90207 | 33039 ft | 493 kts | 90° |
| 2026-04-25 14:10 | 29.65615 | -72.82325 | 33041 ft | 493 kts | 90° |
| 2026-04-25 14:11 | 29.65590 | -72.74501 | 33044 ft | 493 kts | 90° |
| 2026-04-25 14:11 | 29.65560 | -72.66617 | 33043 ft | 493 kts | 90° |
| 2026-04-25 14:12 | 29.65525 | -72.58740 | 33042 ft | 493 kts | 90° |
| 2026-04-25 14:12 | 29.65485 | -72.50858 | 33044 ft | 493 kts | 90° |
| 2026-04-25 14:13 | 29.65441 | -72.42981 | 33042 ft | 493 kts | 90° |
| 2026-04-25 14:13 | 29.65392 | -72.35156 | 33045 ft | 493 kts | 90° |
| 2026-04-25 14:14 | 29.65339 | -72.27275 | 33042 ft | 493 kts | 91° |
| 2026-04-25 14:14 | 29.65280 | -72.19399 | 33041 ft | 493 kts | 90° |
| 2026-04-25 14:15 | 29.65217 | -72.11511 | 33045 ft | 493 kts | 91° |
| 2026-04-25 14:15 | 29.65150 | -72.03624 | 33044 ft | 494 kts | 91° |
| 2026-04-25 14:16 | 29.65078 | -71.95778 | 33045 ft | 494 kts | 91° |
| 2026-04-25 14:16 | 29.65001 | -71.87881 | 33037 ft | 494 kts | 91° |
| 2026-04-25 14:17 | 29.64919 | -71.79972 | 33041 ft | 495 kts | 91° |
| 2026-04-25 14:17 | 29.64833 | -71.72059 | 33047 ft | 495 kts | 91° |
| 2026-04-25 14:18 | 29.64741 | -71.64143 | 33043 ft | 495 kts | 91° |
| 2026-04-25 14:18 | 29.64645 | -71.56229 | 33064 ft | 495 kts | 91° |
| 2026-04-25 14:19 | 29.64546 | -71.48387 | 33039 ft | 493 kts | 91° |
| 2026-04-25 14:19 | 29.64441 | -71.40528 | 33039 ft | 490 kts | 91° |
| 2026-04-25 14:20 | 29.64332 | -71.32703 | 33040 ft | 489 kts | 91° |
| 2026-04-25 14:20 | 29.64219 | -71.24906 | 33045 ft | 487 kts | 91° |
| 2026-04-25 14:21 | 29.64102 | -71.17116 | 33046 ft | 487 kts | 91° |
| 2026-04-25 14:21 | 29.63981 | -71.09378 | 33047 ft | 488 kts | 91° |
| 2026-04-25 14:22 | 29.63854 | -71.01575 | 33048 ft | 489 kts | 91° |
| 2026-04-25 14:22 | 29.63723 | -70.93762 | 33048 ft | 489 kts | 91° |
| 2026-04-25 14:23 | 29.63587 | -70.85934 | 33038 ft | 490 kts | 91° |
| 2026-04-25 14:23 | 29.63445 | -70.78086 | 33047 ft | 491 kts | 91° |
| 2026-04-25 14:24 | 29.63301 | -70.70289 | 33048 ft | 492 kts | 91° |
| 2026-04-25 14:24 | 29.63150 | -70.62420 | 33048 ft | 492 kts | 91° |
| 2026-04-25 14:25 | 29.62994 | -70.54552 | 33045 ft | 493 kts | 91° |
| 2026-04-25 14:25 | 29.62834 | -70.46673 | 33047 ft | 493 kts | 91° |
| 2026-04-25 14:26 | 29.62669 | -70.38796 | 33051 ft | 494 kts | 91° |
| 2026-04-25 14:26 | 29.62499 | -70.30904 | 33050 ft | 494 kts | 91° |
| 2026-04-25 14:27 | 29.62325 | -70.23066 | 33049 ft | 494 kts | 91° |
| 2026-04-25 14:27 | 29.62146 | -70.15165 | 33039 ft | 495 kts | 91° |
| 2026-04-25 14:28 | 29.61961 | -70.07237 | 33056 ft | 497 kts | 91° |
| 2026-04-25 14:28 | 29.61771 | -69.99283 | 33052 ft | 499 kts | 91° |
| 2026-04-25 14:29 | 29.61575 | -69.91306 | 33051 ft | 500 kts | 92° |
| 2026-04-25 14:29 | 29.61376 | -69.83367 | 33042 ft | 501 kts | 92° |
| 2026-04-25 14:30 | 29.61170 | -69.75349 | 33056 ft | 503 kts | 92° |
| 2026-04-25 14:30 | 29.60850 | -69.63278 | 33056 ft | 505 kts | 92° |
| 2026-04-25 14:31 | 29.60631 | -69.55214 | 33051 ft | 505 kts | 92° |
| 2026-04-25 14:31 | 29.60408 | -69.47196 | 33056 ft | 506 kts | 92° |
| 2026-04-25 14:32 | 29.60181 | -69.39223 | 33047 ft | 493 kts | 92° |
| 2026-04-25 14:32 | 29.59953 | -69.31363 | 33063 ft | 493 kts | 92° |
| 2026-04-25 14:33 | 29.59720 | -69.23478 | 33057 ft | 495 kts | 92° |
| 2026-04-25 14:33 | 29.59481 | -69.15560 | 33044 ft | 497 kts | 92° |
| 2026-04-25 14:34 | 29.59237 | -69.07643 | 33061 ft | 501 kts | 92° |
| 2026-04-25 14:34 | 29.58984 | -68.99608 | 33061 ft | 505 kts | 92° |
| 2026-04-25 14:35 | 29.58726 | -68.91527 | 33062 ft | 507 kts | 92° |
| 2026-04-25 14:35 | 29.58462 | -68.83419 | 33039 ft | 509 kts | 93° |
| 2026-04-25 14:36 | 29.58193 | -68.75343 | 33059 ft | 511 kts | 93° |
| 2026-04-25 14:36 | 29.57916 | -68.67172 | 33063 ft | 513 kts | 93° |
| 2026-04-25 14:37 | 29.57635 | -68.58978 | 33055 ft | 514 kts | 93° |
| 2026-04-25 14:37 | 29.57348 | -68.50775 | 33047 ft | 514 kts | 93° |
| 2026-04-25 14:38 | 29.57054 | -68.42548 | 33056 ft | 516 kts | 94° |
| 2026-04-25 14:38 | 29.56756 | -68.34360 | 33060 ft | 517 kts | 94° |
| 2026-04-25 14:39 | 29.56451 | -68.26098 | 33060 ft | 518 kts | 94° |
| 2026-04-25 14:39 | 29.56141 | -68.17815 | 33047 ft | 519 kts | 94° |
| 2026-04-25 14:40 | 29.55824 | -68.09529 | 33054 ft | 520 kts | 94° |
| 2026-04-25 14:40 | 29.55504 | -68.01271 | 33062 ft | 521 kts | 94° |
| 2026-04-25 14:41 | 29.55176 | -67.92939 | 33057 ft | 522 kts | 94° |
| 2026-04-25 14:41 | 29.54843 | -67.84612 | 33053 ft | 522 kts | 94° |
| 2026-04-25 14:42 | 29.54619 | -67.79100 | 33054 ft | 522 kts | 94° |
| 2026-04-25 14:42 | 29.54162 | -67.68006 | 33056 ft | 522 kts | 94° |
| 2026-04-25 14:43 | 29.53814 | -67.59681 | 33057 ft | 522 kts | 94° |
| 2026-04-25 14:43 | 29.53461 | -67.51366 | 33044 ft | 522 kts | 95° |
| 2026-04-25 14:44 | 29.53100 | -67.43036 | 33075 ft | 522 kts | 94° |
| 2026-04-25 14:44 | 29.52736 | -67.34720 | 33057 ft | 521 kts | 94° |
| 2026-04-25 14:45 | 29.52371 | -67.26472 | 33051 ft | 520 kts | 94° |
| 2026-04-25 14:45 | 29.51998 | -67.18192 | 33041 ft | 520 kts | 95° |
| 2026-04-25 14:46 | 29.51619 | -67.09906 | 33055 ft | 519 kts | 95° |
| 2026-04-25 14:46 | 29.51234 | -67.01587 | 33066 ft | 524 kts | 95° |
| 2026-04-25 14:47 | 29.50974 | -66.96046 | 33053 ft | 525 kts | 95° |
| 2026-04-25 14:47 | 29.50447 | -66.84932 | 33042 ft | 523 kts | 95° |
| 2026-04-25 14:48 | 29.50045 | -66.76596 | 33061 ft | 523 kts | 95° |
| 2026-04-25 14:48 | 29.49638 | -66.68247 | 33062 ft | 525 kts | 95° |
| 2026-04-25 14:49 | 29.49295 | -66.61293 | 33055 ft | 526 kts | 95° |
| 2026-04-25 14:49 | 29.48876 | -66.52905 | 33044 ft | 527 kts | 96° |
| 2026-04-25 14:50 | 29.48381 | -66.43133 | 33057 ft | 529 kts | 96° |
| 2026-04-25 14:50 | 29.48019 | -66.36070 | 33055 ft | 529 kts | 96° |
| 2026-04-25 14:51 | 29.47585 | -66.27690 | 33054 ft | 530 kts | 96° |
| 2026-04-25 14:51 | 29.47143 | -66.19245 | 33050 ft | 530 kts | 96° |
| 2026-04-25 14:52 | 29.46695 | -66.10808 | 33056 ft | 530 kts | 96° |
| 2026-04-25 14:52 | 29.46318 | -66.03797 | 33053 ft | 530 kts | 96° |
| 2026-04-25 14:53 | 29.45783 | -65.93942 | 33055 ft | 529 kts | 96° |
| 2026-04-25 14:53 | 29.45323 | -65.85577 | 33053 ft | 529 kts | 96° |
| 2026-04-25 14:54 | 29.44854 | -65.77159 | 33054 ft | 529 kts | 96° |
| 2026-04-25 14:54 | 29.44381 | -65.68745 | 33055 ft | 529 kts | 96° |
| 2026-04-25 14:55 | 29.43902 | -65.60324 | 33042 ft | 529 kts | 96° |
| 2026-04-25 14:55 | 29.43418 | -65.51903 | 33056 ft | 530 kts | 97° |
| 2026-04-25 14:56 | 29.42925 | -65.43468 | 33057 ft | 530 kts | 96° |
| 2026-04-25 14:56 | 29.42433 | -65.35090 | 33053 ft | 530 kts | 96° |
| 2026-04-25 14:57 | 29.41933 | -65.26657 | 33045 ft | 530 kts | 97° |
| 2026-04-25 14:57 | 29.41426 | -65.18224 | 33051 ft | 530 kts | 97° |
| 2026-04-25 14:58 | 29.40913 | -65.09791 | 33050 ft | 530 kts | 97° |
| 2026-04-25 14:58 | 29.40395 | -65.01351 | 33050 ft | 531 kts | 97° |
| 2026-04-25 14:59 | 29.39872 | -64.92893 | 33038 ft | 533 kts | 98° |
| 2026-04-25 14:59 | 29.39342 | -64.84461 | 33056 ft | 535 kts | 98° |
| 2026-04-25 15:00 | 29.38804 | -64.75927 | 33057 ft | 538 kts | 98° |
| 2026-04-25 15:00 | 29.38256 | -64.67368 | 33053 ft | 539 kts | 98° |
| 2026-04-25 15:01 | 29.37702 | -64.58793 | 33048 ft | 539 kts | 98° |
| 2026-04-25 15:01 | 29.37144 | -64.50225 | 33047 ft | 539 kts | 98° |
| 2026-04-25 15:02 | 29.36581 | -64.41671 | 33047 ft | 538 kts | 98° |
| 2026-04-25 15:02 | 29.36018 | -64.33191 | 33029 ft | 537 kts | 98° |
| 2026-04-25 15:03 | 29.35443 | -64.24649 | 33050 ft | 538 kts | 98° |
| 2026-04-25 15:03 | 29.34862 | -64.16087 | 33054 ft | 540 kts | 98° |
| 2026-04-25 15:04 | 29.34275 | -64.07497 | 33053 ft | 541 kts | 98° |
| 2026-04-25 15:04 | 29.33688 | -63.98994 | 33038 ft | 544 kts | 99° |
| 2026-04-25 15:05 | 29.33086 | -63.90385 | 33055 ft | 547 kts | 99° |
| 2026-04-25 15:06 | 29.32166 | -63.77340 | 33049 ft | 550 kts | 99° |
| 2026-04-25 15:06 | 29.31543 | -63.68589 | 33039 ft | 552 kts | 99° |
| 2026-04-25 15:07 | 29.30910 | -63.59813 | 33075 ft | 553 kts | 99° |
| 2026-04-25 15:07 | 29.30274 | -63.51043 | 33042 ft | 551 kts | 99° |
| 2026-04-25 15:08 | 29.29640 | -63.42375 | 33020 ft | 548 kts | 100° |
| 2026-04-25 15:08 | 29.28995 | -63.33670 | 33045 ft | 548 kts | 100° |
| 2026-04-25 15:09 | 29.28342 | -63.24955 | 33054 ft | 550 kts | 100° |
| 2026-04-25 15:09 | 29.27351 | -63.11824 | 33040 ft | 553 kts | 101° |
| 2026-04-25 15:10 | 29.26679 | -63.03025 | 33049 ft | 556 kts | 101° |
| 2026-04-25 15:11 | 29.25662 | -62.89833 | 33049 ft | 558 kts | 101° |
| 2026-04-25 15:11 | 29.24972 | -62.80977 | 33030 ft | 559 kts | 101° |
| 2026-04-25 15:12 | 29.23922 | -62.67663 | 33047 ft | 560 kts | 101° |
| 2026-04-25 15:12 | 29.23335 | -62.60276 | 33050 ft | 561 kts | 101° |
| 2026-04-25 15:13 | 29.22146 | -62.45495 | 33033 ft | 561 kts | 101° |
| 2026-04-25 15:14 | 29.21424 | -62.36606 | 33053 ft | 561 kts | 101° |
| 2026-04-25 15:14 | 29.20694 | -62.27705 | 33037 ft | 562 kts | 101° |
| 2026-04-25 15:15 | 29.19958 | -62.18811 | 33050 ft | 561 kts | 101° |
| 2026-04-25 15:15 | 29.19226 | -62.10003 | 33042 ft | 559 kts | 101° |
| 2026-04-25 15:16 | 29.18485 | -62.01168 | 33038 ft | 557 kts | 101° |
| 2026-04-25 15:16 | 29.17859 | -61.93770 | 33040 ft | 556 kts | 101° |
| 2026-04-25 15:18 | 29.17365 | -61.87979 | 33047 ft | 554 kts | 100° |
| 2026-04-25 15:18 | 29.16238 | -61.74841 | 33044 ft | 553 kts | 101° |
| 2026-04-25 15:19 | 29.15607 | -61.67572 | 33037 ft | 552 kts | 101° |
| 2026-04-25 15:19 | 29.14719 | -61.57406 | 33037 ft | 553 kts | 101° |
| 2026-04-25 15:20 | 29.13949 | -61.48649 | 33045 ft | 554 kts | 101° |
| 2026-04-25 15:20 | 29.13171 | -61.39871 | 33039 ft | 555 kts | 101° |
| 2026-04-25 15:21 | 29.12386 | -61.31086 | 33028 ft | 556 kts | 101° |
| 2026-04-25 15:21 | 29.11595 | -61.22289 | 33046 ft | 556 kts | 101° |
| 2026-04-25 15:22 | 29.10798 | -61.13490 | 33040 ft | 556 kts | 101° |
| 2026-04-25 15:22 | 29.09995 | -61.04697 | 33031 ft | 556 kts | 101° |
| 2026-04-25 15:23 | 29.09192 | -60.95965 | 33040 ft | 556 kts | 101° |
| 2026-04-25 15:23 | 29.08379 | -60.87179 | 33035 ft | 555 kts | 101° |
| 2026-04-25 15:24 | 29.07561 | -60.78405 | 33039 ft | 555 kts | 101° |
| 2026-04-25 15:24 | 29.06876 | -60.71119 | 33025 ft | 555 kts | 101° |
| 2026-04-25 15:25 | 29.05908 | -60.60879 | 33040 ft | 555 kts | 101° |
| 2026-04-25 15:25 | 29.05073 | -60.52115 | 33040 ft | 555 kts | 101° |
| 2026-04-25 15:26 | 29.04238 | -60.43410 | 33022 ft | 555 kts | 101° |
| 2026-04-25 15:26 | 29.03389 | -60.34623 | 33038 ft | 557 kts | 101° |
| 2026-04-25 15:27 | 29.02535 | -60.25823 | 33037 ft | 558 kts | 101° |
| 2026-04-25 15:28 | 29.01239 | -60.12581 | 33026 ft | 560 kts | 101° |
| 2026-04-25 15:28 | 29.00367 | -60.03729 | 33043 ft | 562 kts | 101° |
| 2026-04-25 15:29 | 28.99866 | -59.94866 | 33027 ft | 564 kts | 93° |
| 2026-04-25 15:29 | 29.00013 | -59.85901 | 33017 ft | 565 kts | 91° |
| 2026-04-25 15:30 | 29.00198 | -59.76914 | 33033 ft | 566 kts | 92° |
| 2026-04-25 15:30 | 29.00315 | -59.67918 | 33040 ft | 567 kts | 92° |
| 2026-04-25 15:31 | 29.00387 | -59.58899 | 33026 ft | 568 kts | 93° |
| 2026-04-25 15:31 | 29.00448 | -59.49873 | 33031 ft | 569 kts | 93° |
| 2026-04-25 15:32 | 29.00509 | -59.40897 | 33031 ft | 569 kts | 93° |
| 2026-04-25 15:32 | 29.00567 | -59.31851 | 33029 ft | 569 kts | 93° |
| 2026-04-25 15:33 | 29.00644 | -59.18311 | 33026 ft | 567 kts | 93° |
| 2026-04-25 15:33 | 29.00687 | -59.09316 | 33029 ft | 566 kts | 93° |
| 2026-04-25 15:34 | 29.00723 | -59.00321 | 33040 ft | 566 kts | 93° |
| 2026-04-25 15:34 | 29.00748 | -58.92851 | 33029 ft | 566 kts | 93° |
| 2026-04-25 15:35 | 29.00787 | -58.77903 | 33026 ft | 566 kts | 93° |
| 2026-04-25 15:36 | 29.00809 | -58.64391 | 33024 ft | 567 kts | 93° |
| 2026-04-25 15:36 | 29.00816 | -58.55383 | 33025 ft | 567 kts | 93° |
| 2026-04-25 15:37 | 29.00816 | -58.46368 | 33011 ft | 567 kts | 93° |
| 2026-04-25 15:37 | 29.00812 | -58.37361 | 33023 ft | 567 kts | 93° |
| 2026-04-25 15:38 | 29.00800 | -58.28425 | 33024 ft | 566 kts | 93° |
| 2026-04-25 15:38 | 29.00783 | -58.19445 | 33018 ft | 565 kts | 93° |
| 2026-04-25 15:39 | 29.00760 | -58.10478 | 33029 ft | 564 kts | 93° |
| 2026-04-25 15:39 | 29.00730 | -58.01516 | 33031 ft | 565 kts | 93° |
| 2026-04-25 15:40 | 29.00708 | -57.95575 | 33025 ft | 565 kts | 93° |
| 2026-04-25 15:40 | 29.00655 | -57.83619 | 33024 ft | 566 kts | 93° |
| 2026-04-25 15:41 | 29.00608 | -57.74633 | 33021 ft | 566 kts | 93° |
| 2026-04-25 15:41 | 29.00555 | -57.65642 | 33019 ft | 566 kts | 93° |
| 2026-04-25 15:42 | 29.00497 | -57.56651 | 33021 ft | 566 kts | 93° |
| 2026-04-25 15:42 | 29.00433 | -57.47733 | 33020 ft | 565 kts | 94° |
| 2026-04-25 15:43 | 29.00362 | -57.38758 | 33020 ft | 565 kts | 94° |
| 2026-04-25 15:43 | 29.00287 | -57.29801 | 33017 ft | 564 kts | 93° |
| 2026-04-25 15:44 | 29.00205 | -57.20852 | 33018 ft | 563 kts | 93° |
| 2026-04-25 15:44 | 29.00119 | -57.11911 | 33018 ft | 562 kts | 94° |
| 2026-04-25 15:45 | 29.00029 | -57.02989 | 33020 ft | 561 kts | 93° |
| 2026-04-25 15:45 | 28.99983 | -56.97089 | 33020 ft | 561 kts | 92° |
| 2026-04-25 15:46 | 29.00267 | -56.85215 | 33021 ft | 562 kts | 90° |
| 2026-04-25 15:46 | 29.00558 | -56.76305 | 33018 ft | 561 kts | 90° |
| 2026-04-25 15:47 | 29.00800 | -56.67386 | 33020 ft | 561 kts | 90° |
| 2026-04-25 15:47 | 29.01006 | -56.58473 | 33019 ft | 561 kts | 91° |
| 2026-04-25 15:48 | 29.01201 | -56.49557 | 33028 ft | 561 kts | 91° |
| 2026-04-25 15:48 | 29.01390 | -56.40712 | 33022 ft | 561 kts | 91° |
| 2026-04-25 15:49 | 29.01579 | -56.31809 | 33042 ft | 560 kts | 91° |
| 2026-04-25 15:49 | 29.01762 | -56.22899 | 33010 ft | 562 kts | 91° |
| 2026-04-25 15:50 | 29.01940 | -56.13973 | 33017 ft | 562 kts | 91° |
| 2026-04-25 15:50 | 29.02112 | -56.05035 | 33015 ft | 563 kts | 91° |
| 2026-04-25 15:51 | 29.02223 | -55.99105 | 33013 ft | 564 kts | 91° |
| 2026-04-25 15:51 | 29.02438 | -55.87184 | 33007 ft | 564 kts | 91° |
| 2026-04-25 15:52 | 29.02592 | -55.78223 | 33000 ft | 564 kts | 91° |
| 2026-04-25 15:52 | 29.02741 | -55.69263 | 33021 ft | 564 kts | 91° |
| 2026-04-25 15:53 | 29.02883 | -55.60319 | 33002 ft | 563 kts | 91° |
| 2026-04-25 15:53 | 29.03020 | -55.51375 | 33007 ft | 563 kts | 91° |
| 2026-04-25 15:54 | 29.03149 | -55.42433 | 33006 ft | 563 kts | 91° |
| 2026-04-25 15:54 | 29.03274 | -55.33542 | 33007 ft | 564 kts | 91° |
| 2026-04-25 15:55 | 29.03393 | -55.24578 | 32997 ft | 564 kts | 91° |
| 2026-04-25 15:55 | 29.03506 | -55.15617 | 33019 ft | 564 kts | 91° |
| 2026-04-25 15:56 | 29.03613 | -55.06651 | 33007 ft | 564 kts | 91° |
| 2026-04-25 15:56 | 29.03713 | -54.97696 | 32994 ft | 563 kts | 92° |
| 2026-04-25 15:57 | 29.03809 | -54.88754 | 33007 ft | 562 kts | 92° |
| 2026-04-25 15:57 | 29.03897 | -54.79901 | 33002 ft | 561 kts | 92° |
| 2026-04-25 15:58 | 29.03979 | -54.70981 | 33019 ft | 561 kts | 92° |
| 2026-04-25 15:58 | 29.04056 | -54.62070 | 33009 ft | 561 kts | 92° |
| 2026-04-25 15:59 | 29.04127 | -54.53149 | 33006 ft | 562 kts | 92° |
| 2026-04-25 15:59 | 29.04192 | -54.44213 | 33004 ft | 562 kts | 92° |
| 2026-04-25 16:00 | 29.04233 | -54.38296 | 33003 ft | 562 kts | 92° |
| 2026-04-25 16:00 | 29.04305 | -54.26401 | 33010 ft | 562 kts | 92° |
| 2026-04-25 16:01 | 29.04353 | -54.17470 | 33013 ft | 562 kts | 92° |
| 2026-04-25 16:01 | 29.04395 | -54.08547 | 33007 ft | 561 kts | 92° |
| 2026-04-25 16:02 | 29.04430 | -53.99630 | 33008 ft | 561 kts | 92° |
| 2026-04-25 16:02 | 29.04460 | -53.90712 | 33015 ft | 561 kts | 92° |
| 2026-04-25 16:03 | 29.04483 | -53.81862 | 33015 ft | 562 kts | 92° |
| 2026-04-25 16:03 | 29.04502 | -53.72912 | 32994 ft | 562 kts | 92° |
| 2026-04-25 16:04 | 29.04515 | -53.63979 | 33000 ft | 562 kts | 92° |
| 2026-04-25 16:04 | 29.04521 | -53.55051 | 33007 ft | 562 kts | 92° |
| 2026-04-25 16:05 | 29.04521 | -53.46177 | 33005 ft | 562 kts | 92° |
| 2026-04-25 16:06 | 29.04511 | -53.32782 | 33006 ft | 562 kts | 92° |
| 2026-04-25 16:06 | 29.04496 | -53.23869 | 33007 ft | 562 kts | 92° |
| 2026-04-25 16:07 | 29.04476 | -53.14918 | 33009 ft | 563 kts | 92° |
| 2026-04-25 16:07 | 29.04450 | -53.06041 | 33010 ft | 563 kts | 92° |
| 2026-04-25 16:08 | 29.04418 | -52.97102 | 32985 ft | 563 kts | 92° |
| 2026-04-25 16:08 | 29.04380 | -52.88145 | 33006 ft | 563 kts | 92° |
| 2026-04-25 16:09 | 29.04336 | -52.79200 | 33005 ft | 563 kts | 92° |
| 2026-04-25 16:09 | 29.04286 | -52.70255 | 32997 ft | 563 kts | 92° |
| 2026-04-25 16:10 | 29.04231 | -52.61369 | 33001 ft | 563 kts | 92° |
| 2026-04-25 16:10 | 29.04169 | -52.52430 | 33003 ft | 563 kts | 92° |
| 2026-04-25 16:11 | 29.04102 | -52.43488 | 33011 ft | 563 kts | 92° |
| 2026-04-25 16:11 | 29.04028 | -52.34542 | 33009 ft | 563 kts | 92° |
| 2026-04-25 16:12 | 29.03949 | -52.25604 | 32988 ft | 563 kts | 92° |
| 2026-04-25 16:12 | 29.03864 | -52.16717 | 33007 ft | 563 kts | 92° |
| 2026-04-25 16:13 | 29.03773 | -52.07779 | 33007 ft | 563 kts | 92° |
| 2026-04-25 16:13 | 29.03675 | -51.98833 | 33001 ft | 563 kts | 92° |
| 2026-04-25 16:14 | 29.03572 | -51.89890 | 33004 ft | 563 kts | 92° |
| 2026-04-25 16:14 | 29.03464 | -51.80994 | 33003 ft | 564 kts | 92° |
| 2026-04-25 16:15 | 29.03349 | -51.72041 | 33016 ft | 564 kts | 92° |
| 2026-04-25 16:15 | 29.03228 | -51.63081 | 33012 ft | 564 kts | 92° |
| 2026-04-25 16:16 | 29.03101 | -51.54123 | 32996 ft | 564 kts | 92° |
| 2026-04-25 16:16 | 29.02969 | -51.45235 | 33003 ft | 563 kts | 92° |
| 2026-04-25 16:17 | 29.02831 | -51.36313 | 33010 ft | 563 kts | 93° |
| 2026-04-25 16:17 | 29.02686 | -51.27349 | 33006 ft | 563 kts | 92° |
| 2026-04-25 16:18 | 29.02536 | -51.18412 | 33004 ft | 562 kts | 92° |
| 2026-04-25 16:18 | 29.02380 | -51.09482 | 33006 ft | 562 kts | 92° |
| 2026-04-25 16:19 | 29.02218 | -51.00544 | 33012 ft | 563 kts | 92° |
| 2026-04-25 16:19 | 29.02051 | -50.91663 | 33016 ft | 563 kts | 93° |
| 2026-04-25 16:20 | 29.01788 | -50.78237 | 33008 ft | 563 kts | 92° |
| 2026-04-25 16:21 | 29.01511 | -50.64820 | 33008 ft | 563 kts | 93° |
| 2026-04-25 16:21 | 29.01321 | -50.55953 | 33011 ft | 563 kts | 93° |
| 2026-04-25 16:22 | 29.01125 | -50.47036 | 33012 ft | 563 kts | 93° |
| 2026-04-25 16:22 | 29.00922 | -50.38099 | 33002 ft | 563 kts | 93° |
| 2026-04-25 16:23 | 29.00713 | -50.29147 | 33021 ft | 564 kts | 93° |
| 2026-04-25 16:23 | 29.00498 | -50.20198 | 33017 ft | 564 kts | 93° |
| 2026-04-25 16:24 | 29.00281 | -50.11312 | 33004 ft | 564 kts | 93° |
| 2026-04-25 16:24 | 29.00057 | -50.02363 | 33011 ft | 563 kts | 93° |
| 2026-04-25 16:25 | 28.99947 | -49.93410 | 33003 ft | 563 kts | 90° |
| 2026-04-25 16:25 | 29.00156 | -49.84471 | 33016 ft | 563 kts | 89° |
| 2026-04-25 16:26 | 29.00395 | -49.75590 | 33012 ft | 563 kts | 89° |
| 2026-04-25 16:26 | 29.00573 | -49.66673 | 33009 ft | 562 kts | 89° |
| 2026-04-25 16:27 | 29.00710 | -49.57746 | 33017 ft | 561 kts | 90° |
| 2026-04-25 16:27 | 29.00836 | -49.48833 | 33004 ft | 561 kts | 90° |
| 2026-04-25 16:28 | 29.00940 | -49.41432 | 33017 ft | 561 kts | 90° |
| 2026-04-25 16:28 | 29.01083 | -49.31082 | 33019 ft | 561 kts | 90° |
| 2026-04-25 16:29 | 29.01200 | -49.22175 | 33014 ft | 561 kts | 90° |
| 2026-04-25 16:29 | 29.01293 | -49.14775 | 33040 ft | 561 kts | 90° |
| 2026-04-25 16:30 | 29.01398 | -49.05863 | 33012 ft | 561 kts | 90° |
| 2026-04-25 16:30 | 29.01498 | -48.96983 | 33021 ft | 560 kts | 90° |
| 2026-04-25 16:31 | 29.01592 | -48.88083 | 33018 ft | 559 kts | 90° |
| 2026-04-25 16:31 | 29.01680 | -48.79216 | 33021 ft | 558 kts | 90° |
| 2026-04-25 16:32 | 29.01761 | -48.70415 | 33024 ft | 558 kts | 90° |
| 2026-04-25 16:32 | 29.01837 | -48.61562 | 33015 ft | 557 kts | 90° |
| 2026-04-25 16:33 | 29.01907 | -48.52713 | 33044 ft | 557 kts | 90° |
| 2026-04-25 16:33 | 29.01972 | -48.43848 | 33028 ft | 558 kts | 90° |
| 2026-04-25 16:34 | 29.02030 | -48.34986 | 33025 ft | 558 kts | 90° |
| 2026-04-25 16:34 | 29.02083 | -48.26126 | 33032 ft | 558 kts | 90° |
| 2026-04-25 16:35 | 29.02130 | -48.17322 | 33030 ft | 558 kts | 90° |
| 2026-04-25 16:35 | 29.02171 | -48.08449 | 33032 ft | 558 kts | 90° |
| 2026-04-25 16:36 | 29.02207 | -47.99577 | 33019 ft | 558 kts | 90° |
| 2026-04-25 16:36 | 29.02237 | -47.90706 | 33036 ft | 559 kts | 90° |
| 2026-04-25 16:37 | 29.02260 | -47.81830 | 33036 ft | 559 kts | 90° |
| 2026-04-25 16:37 | 29.02278 | -47.73022 | 33034 ft | 558 kts | 90° |
| 2026-04-25 16:38 | 29.02291 | -47.64154 | 33039 ft | 558 kts | 90° |
| 2026-04-25 16:38 | 29.02297 | -47.55285 | 33036 ft | 558 kts | 90° |
| 2026-04-25 16:39 | 29.02298 | -47.46423 | 33041 ft | 558 kts | 90° |
| 2026-04-25 16:39 | 29.02292 | -47.37557 | 33041 ft | 558 kts | 90° |
| 2026-04-25 16:40 | 29.02281 | -47.28753 | 33042 ft | 558 kts | 90° |
| 2026-04-25 16:40 | 29.02265 | -47.19890 | 33044 ft | 557 kts | 90° |
| 2026-04-25 16:41 | 29.02241 | -47.11043 | 33039 ft | 557 kts | 90° |
| 2026-04-25 16:41 | 29.02197 | -46.97767 | 33053 ft | 557 kts | 90° |
| 2026-04-25 16:42 | 29.02160 | -46.88926 | 33044 ft | 557 kts | 90° |
| 2026-04-25 16:42 | 29.02118 | -46.80141 | 33050 ft | 557 kts | 90° |
| 2026-04-25 16:43 | 29.02069 | -46.71294 | 33050 ft | 557 kts | 90° |
| 2026-04-25 16:43 | 29.02015 | -46.62450 | 33052 ft | 556 kts | 90° |
| 2026-04-25 16:44 | 29.01954 | -46.53613 | 33044 ft | 556 kts | 90° |
| 2026-04-25 16:44 | 29.01889 | -46.44841 | 33053 ft | 556 kts | 90° |
| 2026-04-25 16:45 | 29.01817 | -46.36008 | 33047 ft | 556 kts | 90° |
| 2026-04-25 16:45 | 29.01740 | -46.27180 | 33063 ft | 556 kts | 90° |
| 2026-04-25 16:46 | 29.01657 | -46.18357 | 33055 ft | 555 kts | 90° |
| 2026-04-25 16:46 | 29.01584 | -46.11024 | 33053 ft | 555 kts | 90° |
| 2026-04-25 16:47 | 29.01475 | -46.00787 | 33060 ft | 554 kts | 91° |
| 2026-04-25 16:47 | 29.01375 | -45.91980 | 33053 ft | 554 kts | 91° |
| 2026-04-25 16:48 | 29.01269 | -45.83179 | 33067 ft | 554 kts | 91° |
| 2026-04-25 16:48 | 29.01158 | -45.74369 | 33064 ft | 555 kts | 91° |
| 2026-04-25 16:49 | 29.01041 | -45.65562 | 33063 ft | 554 kts | 91° |
| 2026-04-25 16:49 | 29.00918 | -45.56754 | 33056 ft | 554 kts | 91° |
| 2026-04-25 16:50 | 29.00791 | -45.48013 | 33066 ft | 554 kts | 91° |
| 2026-04-25 16:50 | 29.00657 | -45.39215 | 33065 ft | 554 kts | 91° |
| 2026-04-25 16:51 | 29.00518 | -45.30423 | 33061 ft | 554 kts | 91° |
| 2026-04-25 16:51 | 29.00399 | -45.23108 | 33067 ft | 554 kts | 91° |
| 2026-04-25 16:52 | 29.00228 | -45.12879 | 33063 ft | 554 kts | 91° |
| 2026-04-25 16:52 | 28.99971 | -45.04093 | 33069 ft | 554 kts | 96° |
| 2026-04-25 16:53 | 28.98546 | -44.95472 | 33077 ft | 552 kts | 108° |
| 2026-04-25 16:53 | 28.97348 | -44.91326 | 33066 ft | 549 kts | 114° |
| 2026-04-25 16:54 | 28.94612 | -44.83188 | 33061 ft | 550 kts | 113° |
| 2026-04-25 16:54 | 28.91944 | -44.75003 | 33077 ft | 550 kts | 113° |
| 2026-04-25 16:55 | 28.89326 | -44.66856 | 33074 ft | 551 kts | 112° |
| 2026-04-25 16:55 | 28.86689 | -44.58655 | 33075 ft | 551 kts | 112° |
| 2026-04-25 16:56 | 28.84038 | -44.50449 | 33065 ft | 551 kts | 112° |
| 2026-04-25 16:56 | 28.81380 | -44.42252 | 33077 ft | 551 kts | 113° |
| 2026-04-25 16:57 | 28.78716 | -44.34056 | 33080 ft | 552 kts | 112° |
| 2026-04-25 16:57 | 28.76060 | -44.25905 | 33056 ft | 552 kts | 113° |
| 2026-04-25 16:58 | 28.73386 | -44.17714 | 33076 ft | 552 kts | 113° |
| 2026-04-25 16:58 | 28.70705 | -44.09523 | 33079 ft | 552 kts | 113° |
| 2026-04-25 16:59 | 28.68018 | -44.01332 | 33089 ft | 552 kts | 113° |
| 2026-04-25 16:59 | 28.65326 | -43.93147 | 33076 ft | 552 kts | 113° |
| 2026-04-25 17:00 | 28.62650 | -43.85027 | 33086 ft | 552 kts | 113° |
| 2026-04-25 17:00 | 28.59949 | -43.76849 | 33090 ft | 552 kts | 113° |
| 2026-04-25 17:01 | 28.57240 | -43.68670 | 33065 ft | 552 kts | 113° |
| 2026-04-25 17:01 | 28.54527 | -43.60497 | 33087 ft | 552 kts | 113° |
| 2026-04-25 17:02 | 28.51812 | -43.52334 | 33089 ft | 552 kts | 113° |
| 2026-04-25 17:02 | 28.49105 | -43.44216 | 33088 ft | 553 kts | 113° |
| 2026-04-25 17:03 | 28.46375 | -43.36049 | 33083 ft | 553 kts | 113° |
| 2026-04-25 17:03 | 28.43641 | -43.27885 | 33093 ft | 553 kts | 113° |
| 2026-04-25 17:04 | 28.40900 | -43.19720 | 33095 ft | 553 kts | 113° |
| 2026-04-25 17:04 | 28.38173 | -43.11617 | 33090 ft | 553 kts | 113° |
| 2026-04-25 17:05 | 28.35422 | -43.03460 | 33084 ft | 553 kts | 113° |
| 2026-04-25 17:05 | 28.31287 | -42.91234 | 33092 ft | 553 kts | 113° |
| 2026-04-25 17:06 | 28.28521 | -42.83082 | 33094 ft | 554 kts | 113° |
| 2026-04-25 17:06 | 28.25752 | -42.74936 | 33086 ft | 553 kts | 113° |
| 2026-04-25 17:07 | 28.22996 | -42.66847 | 33090 ft | 553 kts | 113° |
| 2026-04-25 17:07 | 28.20218 | -42.58710 | 33110 ft | 554 kts | 113° |
| 2026-04-25 17:08 | 28.17433 | -42.50572 | 33102 ft | 554 kts | 113° |
| 2026-04-25 17:08 | 28.14638 | -42.42424 | 33097 ft | 554 kts | 113° |
| 2026-04-25 17:09 | 28.11843 | -42.34290 | 33102 ft | 554 kts | 113° |
| 2026-04-25 17:09 | 28.09061 | -42.26213 | 33100 ft | 554 kts | 113° |
| 2026-04-25 17:10 | 28.06257 | -42.18089 | 33096 ft | 554 kts | 113° |
| 2026-04-25 17:10 | 28.03455 | -42.09980 | 33106 ft | 553 kts | 113° |
| 2026-04-25 17:11 | 28.00641 | -42.01870 | 33103 ft | 553 kts | 114° |
| 2026-04-25 17:11 | 27.97308 | -41.94149 | 33110 ft | 550 kts | 123° |
| 2026-04-25 17:12 | 27.93496 | -41.86638 | 33094 ft | 550 kts | 123° |
| 2026-04-25 17:12 | 27.89738 | -41.79111 | 33103 ft | 551 kts | 122° |
| 2026-04-25 17:13 | 27.86637 | -41.72811 | 33110 ft | 551 kts | 122° |
| 2026-04-25 17:13 | 27.82293 | -41.63959 | 33083 ft | 552 kts | 122° |
| 2026-04-25 17:14 | 27.78583 | -41.56420 | 33104 ft | 552 kts | 122° |
| 2026-04-25 17:14 | 27.74847 | -41.48853 | 33112 ft | 552 kts | 122° |
| 2026-04-25 17:15 | 27.71097 | -41.41275 | 33109 ft | 553 kts | 122° |
| 2026-04-25 17:15 | 27.67351 | -41.33716 | 33115 ft | 552 kts | 122° |
| 2026-04-25 17:16 | 27.63594 | -41.26150 | 33111 ft | 553 kts | 122° |
| 2026-04-25 17:16 | 27.59860 | -41.18643 | 33108 ft | 553 kts | 122° |
| 2026-04-25 17:17 | 27.56095 | -41.11085 | 33091 ft | 553 kts | 122° |
| 2026-04-25 17:17 | 27.52324 | -41.03529 | 33105 ft | 553 kts | 122° |
| 2026-04-25 17:18 | 27.48552 | -40.95984 | 33112 ft | 553 kts | 122° |
| 2026-04-25 17:18 | 27.44772 | -40.88439 | 33115 ft | 553 kts | 122° |
| 2026-04-25 17:19 | 27.40989 | -40.80898 | 33093 ft | 553 kts | 122° |
| 2026-04-25 17:19 | 27.37231 | -40.73422 | 33106 ft | 553 kts | 122° |
| 2026-04-25 17:20 | 27.33440 | -40.65892 | 33116 ft | 553 kts | 122° |
| 2026-04-25 17:20 | 27.29642 | -40.58361 | 33091 ft | 554 kts | 122° |
| 2026-04-25 17:21 | 27.25839 | -40.50835 | 33105 ft | 554 kts | 122° |
| 2026-04-25 17:21 | 27.22058 | -40.43363 | 33127 ft | 554 kts | 122° |
| 2026-04-25 17:22 | 27.18864 | -40.37062 | 33107 ft | 554 kts | 122° |
| 2026-04-25 17:22 | 27.14430 | -40.28328 | 33103 ft | 554 kts | 122° |
| 2026-04-25 17:23 | 27.10607 | -40.20811 | 33111 ft | 555 kts | 122° |
| 2026-04-25 17:23 | 27.06776 | -40.13290 | 33109 ft | 555 kts | 122° |
| 2026-04-25 17:24 | 27.02971 | -40.05827 | 33100 ft | 555 kts | 122° |
| 2026-04-25 17:24 | 26.99142 | -39.98315 | 33104 ft | 555 kts | 121° |
| 2026-04-25 17:25 | 26.95502 | -39.90679 | 33112 ft | 556 kts | 119° |
| 2026-04-25 17:25 | 26.91959 | -39.82974 | 33102 ft | 556 kts | 119° |
| 2026-04-25 17:26 | 26.88393 | -39.75277 | 33112 ft | 556 kts | 120° |
| 2026-04-25 17:26 | 26.84820 | -39.67662 | 33108 ft | 556 kts | 120° |
| 2026-04-25 17:27 | 26.81205 | -39.59998 | 33110 ft | 556 kts | 120° |
| 2026-04-25 17:27 | 26.78785 | -39.54875 | 33113 ft | 556 kts | 120° |
| 2026-04-25 17:28 | 26.73968 | -39.44689 | 33096 ft | 556 kts | 120° |
| 2026-04-25 17:28 | 26.70348 | -39.37044 | 33107 ft | 556 kts | 120° |
| 2026-04-25 17:29 | 26.66727 | -39.29411 | 33112 ft | 556 kts | 120° |
| 2026-04-25 17:29 | 26.63093 | -39.21766 | 33103 ft | 557 kts | 120° |
| 2026-04-25 17:30 | 26.59481 | -39.14180 | 33113 ft | 557 kts | 120° |
| 2026-04-25 17:30 | 26.55841 | -39.06544 | 33101 ft | 557 kts | 120° |
| 2026-04-25 17:31 | 26.52189 | -38.98904 | 33107 ft | 558 kts | 120° |
| 2026-04-25 17:31 | 26.48533 | -38.91266 | 33112 ft | 558 kts | 120° |
| 2026-04-25 17:32 | 26.44875 | -38.83635 | 33109 ft | 558 kts | 120° |
| 2026-04-25 17:32 | 26.41237 | -38.76061 | 33102 ft | 558 kts | 120° |
| 2026-04-25 17:33 | 26.37568 | -38.68435 | 33103 ft | 557 kts | 120° |
| 2026-04-25 17:33 | 26.33899 | -38.60822 | 33096 ft | 558 kts | 120° |
| 2026-04-25 17:34 | 26.30225 | -38.53213 | 33107 ft | 557 kts | 120° |
| 2026-04-25 17:34 | 26.26569 | -38.45652 | 33105 ft | 558 kts | 120° |
| 2026-04-25 17:35 | 26.22885 | -38.38049 | 33109 ft | 558 kts | 120° |
| 2026-04-25 17:35 | 26.19193 | -38.30442 | 33105 ft | 558 kts | 120° |
| 2026-04-25 17:36 | 26.15501 | -38.22845 | 33104 ft | 558 kts | 120° |
| 2026-04-25 17:36 | 26.11802 | -38.15249 | 33118 ft | 558 kts | 120° |
| 2026-04-25 17:37 | 26.08118 | -38.07698 | 33107 ft | 559 kts | 120° |
| 2026-04-25 17:37 | 26.04406 | -38.00101 | 33103 ft | 559 kts | 120° |
| 2026-04-25 17:38 | 26.01922 | -37.95025 | 33120 ft | 559 kts | 120° |
| 2026-04-25 17:38 | 25.96968 | -37.84916 | 33104 ft | 560 kts | 120° |
| 2026-04-25 17:39 | 25.93240 | -37.77325 | 33107 ft | 560 kts | 120° |
| 2026-04-25 17:39 | 25.89508 | -37.69739 | 33113 ft | 560 kts | 120° |
| 2026-04-25 17:40 | 25.86402 | -37.63434 | 33100 ft | 560 kts | 120° |
| 2026-04-25 17:40 | 25.82057 | -37.54630 | 33105 ft | 560 kts | 120° |
| 2026-04-25 17:41 | 25.78310 | -37.47052 | 33127 ft | 560 kts | 120° |
| 2026-04-25 17:41 | 25.74554 | -37.39468 | 33110 ft | 561 kts | 120° |
| 2026-04-25 17:42 | 25.70794 | -37.31892 | 33102 ft | 561 kts | 120° |
| 2026-04-25 17:42 | 25.67058 | -37.24371 | 33107 ft | 561 kts | 120° |
| 2026-04-25 17:43 | 25.63295 | -37.16809 | 33110 ft | 561 kts | 120° |
| 2026-04-25 17:43 | 25.59516 | -37.09232 | 33109 ft | 561 kts | 120° |
| 2026-04-25 17:44 | 25.55739 | -37.01669 | 33100 ft | 561 kts | 120° |
| 2026-04-25 17:44 | 25.51956 | -36.94107 | 33114 ft | 561 kts | 120° |
| 2026-04-25 17:45 | 25.49448 | -36.89101 | 33109 ft | 562 kts | 120° |
| 2026-04-25 17:45 | 25.44400 | -36.79039 | 33109 ft | 562 kts | 120° |
| 2026-04-25 17:46 | 25.40601 | -36.71481 | 33119 ft | 562 kts | 120° |
| 2026-04-25 17:46 | 25.36794 | -36.63922 | 33112 ft | 563 kts | 120° |
| 2026-04-25 17:47 | 25.32983 | -36.56367 | 33111 ft | 563 kts | 120° |
| 2026-04-25 17:47 | 25.29193 | -36.48865 | 33111 ft | 563 kts | 120° |
| 2026-04-25 17:48 | 25.23468 | -36.37554 | 33108 ft | 562 kts | 121° |
| 2026-04-25 17:49 | 25.19649 | -36.30027 | 33113 ft | 562 kts | 121° |
| 2026-04-25 17:49 | 25.15824 | -36.22499 | 33124 ft | 562 kts | 120° |
| 2026-04-25 17:50 | 25.12019 | -36.15021 | 33119 ft | 563 kts | 120° |
| 2026-04-25 17:50 | 25.08179 | -36.07487 | 33107 ft | 563 kts | 121° |
| 2026-04-25 17:51 | 25.04339 | -35.99968 | 33130 ft | 563 kts | 121° |
| 2026-04-25 17:51 | 25.00488 | -35.92439 | 33114 ft | 564 kts | 121° |
| 2026-04-25 17:52 | 24.96637 | -35.84918 | 33116 ft | 564 kts | 121° |
| 2026-04-25 17:52 | 24.92800 | -35.77438 | 33090 ft | 564 kts | 121° |
| 2026-04-25 17:53 | 24.88939 | -35.69926 | 33131 ft | 564 kts | 121° |
| 2026-04-25 17:53 | 24.85068 | -35.62404 | 33116 ft | 565 kts | 121° |
| 2026-04-25 17:54 | 24.81191 | -35.54882 | 33116 ft | 565 kts | 121° |
| 2026-04-25 17:54 | 24.77308 | -35.47362 | 33125 ft | 565 kts | 121° |
| 2026-04-25 17:55 | 24.73448 | -35.39897 | 33114 ft | 565 kts | 121° |
| 2026-04-25 17:55 | 24.69560 | -35.32393 | 33119 ft | 565 kts | 121° |
| 2026-04-25 17:56 | 24.65666 | -35.24887 | 33117 ft | 565 kts | 121° |
| 2026-04-25 17:56 | 24.61767 | -35.17382 | 33118 ft | 566 kts | 121° |
| 2026-04-25 17:57 | 24.57891 | -35.09932 | 33109 ft | 565 kts | 121° |
| 2026-04-25 17:57 | 24.53985 | -35.02438 | 33122 ft | 565 kts | 121° |
| 2026-04-25 17:58 | 24.50075 | -34.94948 | 33126 ft | 566 kts | 121° |
| 2026-04-25 17:58 | 24.46157 | -34.87456 | 33124 ft | 566 kts | 121° |
| 2026-04-25 17:59 | 24.42230 | -34.79957 | 33102 ft | 566 kts | 121° |
| 2026-04-25 17:59 | 24.38333 | -34.72524 | 33135 ft | 566 kts | 121° |
| 2026-04-25 18:00 | 24.35066 | -34.66305 | 33124 ft | 566 kts | 121° |
| 2026-04-25 18:00 | 24.30469 | -34.57565 | 33126 ft | 566 kts | 121° |
| 2026-04-25 18:01 | 24.26529 | -34.50088 | 33129 ft | 566 kts | 121° |
| 2026-04-25 18:01 | 24.22585 | -34.42613 | 33122 ft | 566 kts | 121° |
| 2026-04-25 18:02 | 24.18667 | -34.35200 | 33126 ft | 566 kts | 122° |
| 2026-04-25 18:02 | 24.14719 | -34.27739 | 33126 ft | 566 kts | 122° |
| 2026-04-25 18:03 | 24.10772 | -34.20285 | 33142 ft | 566 kts | 122° |
| 2026-04-25 18:03 | 24.06810 | -34.12824 | 33108 ft | 567 kts | 122° |
| 2026-04-25 18:04 | 24.02852 | -34.05372 | 33121 ft | 566 kts | 122° |
| 2026-04-25 18:04 | 23.98911 | -33.97988 | 33126 ft | 566 kts | 123° |
| 2026-04-25 18:05 | 23.94758 | -33.90681 | 33125 ft | 565 kts | 124° |
| 2026-04-25 18:05 | 23.90525 | -33.83444 | 33124 ft | 565 kts | 124° |
| 2026-04-25 18:06 | 23.86316 | -33.76197 | 33119 ft | 564 kts | 124° |
| 2026-04-25 18:06 | 23.82142 | -33.68949 | 33138 ft | 564 kts | 124° |
| 2026-04-25 18:07 | 23.77998 | -33.61745 | 33124 ft | 564 kts | 124° |
| 2026-04-25 18:07 | 23.73819 | -33.54493 | 33128 ft | 564 kts | 124° |
| 2026-04-25 18:08 | 23.69633 | -33.47246 | 33128 ft | 564 kts | 124° |
| 2026-04-25 18:08 | 23.65441 | -33.40002 | 33127 ft | 565 kts | 124° |
| 2026-04-25 18:09 | 23.61270 | -33.32806 | 33124 ft | 566 kts | 124° |
| 2026-04-25 18:09 | 23.57060 | -33.25550 | 33123 ft | 567 kts | 124° |
| 2026-04-25 18:10 | 23.52847 | -33.18299 | 33121 ft | 567 kts | 124° |
| 2026-04-25 18:10 | 23.48626 | -33.11045 | 33129 ft | 566 kts | 124° |
| 2026-04-25 18:11 | 23.44403 | -33.03798 | 33114 ft | 566 kts | 124° |
| 2026-04-25 18:11 | 23.40183 | -32.96568 | 33111 ft | 566 kts | 124° |
| 2026-04-25 18:12 | 23.35989 | -32.89391 | 33114 ft | 565 kts | 124° |
| 2026-04-25 18:12 | 23.31770 | -32.82183 | 33098 ft | 565 kts | 124° |
| 2026-04-25 18:13 | 23.27549 | -32.74980 | 33118 ft | 564 kts | 125° |
| 2026-04-25 18:13 | 23.23326 | -32.67784 | 33116 ft | 564 kts | 125° |
| 2026-04-25 18:14 | 23.17012 | -32.57047 | 33120 ft | 565 kts | 125° |
| 2026-04-25 18:14 | 23.12777 | -32.49856 | 33101 ft | 565 kts | 125° |
| 2026-04-25 18:15 | 23.08541 | -32.42674 | 33112 ft | 565 kts | 125° |
| 2026-04-25 18:15 | 23.04295 | -32.35484 | 33114 ft | 564 kts | 125° |
| 2026-04-25 18:16 | 23.00057 | -32.28319 | 33118 ft | 565 kts | 125° |
| 2026-04-25 18:17 | 22.93713 | -32.17611 | 33082 ft | 565 kts | 125° |
| 2026-04-25 18:17 | 22.89466 | -32.10454 | 33101 ft | 564 kts | 125° |
| 2026-04-25 18:18 | 22.85227 | -32.03321 | 33110 ft | 563 kts | 125° |
| 2026-04-25 18:18 | 22.80980 | -31.96186 | 33111 ft | 563 kts | 125° |
| 2026-04-25 18:19 | 22.76738 | -31.89068 | 33109 ft | 563 kts | 125° |
| 2026-04-25 18:19 | 22.72517 | -31.81995 | 33088 ft | 562 kts | 126° |
| 2026-04-25 18:20 | 22.68270 | -31.74887 | 33101 ft | 562 kts | 126° |
| 2026-04-25 18:20 | 22.64024 | -31.67791 | 33099 ft | 561 kts | 126° |
| 2026-04-25 18:21 | 22.59775 | -31.60700 | 33097 ft | 561 kts | 126° |
| 2026-04-25 18:21 | 22.56240 | -31.54809 | 33114 ft | 561 kts | 126° |
| 2026-04-25 18:22 | 22.51295 | -31.46576 | 33112 ft | 561 kts | 126° |
| 2026-04-25 18:22 | 22.47037 | -31.39498 | 33102 ft | 562 kts | 126° |
| 2026-04-25 18:23 | 22.43498 | -31.33623 | 33103 ft | 561 kts | 126° |
| 2026-04-25 18:23 | 22.39236 | -31.26555 | 33100 ft | 561 kts | 126° |
| 2026-04-25 18:24 | 22.34278 | -31.18347 | 33104 ft | 561 kts | 126° |
| 2026-04-25 18:24 | 22.30013 | -31.11295 | 33091 ft | 560 kts | 126° |
| 2026-04-25 18:25 | 22.26471 | -31.05444 | 33091 ft | 559 kts | 126° |
| 2026-04-25 18:25 | 22.22211 | -30.98418 | 33097 ft | 559 kts | 126° |
| 2026-04-25 18:26 | 22.17948 | -30.91397 | 33107 ft | 559 kts | 126° |
| 2026-04-25 18:26 | 22.13711 | -30.84426 | 33101 ft | 560 kts | 126° |
| 2026-04-25 18:27 | 22.09413 | -30.77365 | 33085 ft | 559 kts | 126° |
| 2026-04-25 18:27 | 22.05178 | -30.70416 | 33092 ft | 559 kts | 126° |
| 2026-04-25 18:28 | 22.00906 | -30.63414 | 33101 ft | 559 kts | 126° |
| 2026-04-25 18:28 | 21.96630 | -30.56416 | 33091 ft | 559 kts | 126° |
| 2026-04-25 18:29 | 21.90208 | -30.45924 | 33055 ft | 559 kts | 126° |
| 2026-04-25 18:30 | 21.81687 | -30.32029 | 33086 ft | 558 kts | 126° |
| 2026-04-25 18:30 | 21.77409 | -30.25069 | 33091 ft | 557 kts | 126° |
| 2026-04-25 18:31 | 21.73132 | -30.18118 | 33086 ft | 557 kts | 126° |
| 2026-04-25 18:31 | 21.68851 | -30.11168 | 33104 ft | 557 kts | 127° |
| 2026-04-25 18:32 | 21.64566 | -30.04221 | 33093 ft | 558 kts | 127° |
| 2026-04-25 18:32 | 21.60306 | -29.97321 | 33084 ft | 558 kts | 127° |
| 2026-04-25 18:33 | 21.56017 | -29.90381 | 33084 ft | 558 kts | 127° |
| 2026-04-25 18:33 | 21.51724 | -29.83439 | 33085 ft | 558 kts | 127° |
| 2026-04-25 18:34 | 21.47398 | -29.76529 | 33054 ft | 557 kts | 128° |
| 2026-04-25 18:34 | 21.42912 | -29.69758 | 33075 ft | 556 kts | 129° |
| 2026-04-25 18:35 | 21.38430 | -29.63077 | 33071 ft | 555 kts | 129° |
| 2026-04-25 18:35 | 21.33940 | -29.56331 | 33080 ft | 555 kts | 129° |
| 2026-04-25 18:36 | 21.29467 | -29.49573 | 33084 ft | 556 kts | 129° |
| 2026-04-25 18:36 | 21.24995 | -29.42816 | 33050 ft | 556 kts | 129° |
| 2026-04-25 18:37 | 21.20518 | -29.36064 | 33067 ft | 555 kts | 129° |
| 2026-04-25 18:37 | 21.16070 | -29.29368 | 33079 ft | 556 kts | 129° |
| 2026-04-25 18:38 | 21.11585 | -29.22625 | 33074 ft | 556 kts | 129° |
| 2026-04-25 18:38 | 21.07108 | -29.15872 | 33066 ft | 555 kts | 128° |
| 2026-04-25 18:39 | 21.02641 | -29.09132 | 33051 ft | 555 kts | 129° |
| 2026-04-25 18:39 | 20.98162 | -29.02464 | 33076 ft | 555 kts | 129° |
| 2026-04-25 18:40 | 20.93655 | -28.95748 | 33072 ft | 556 kts | 129° |
| 2026-04-25 18:40 | 20.89149 | -28.89018 | 33071 ft | 556 kts | 129° |
| 2026-04-25 18:41 | 20.84645 | -28.82290 | 33051 ft | 556 kts | 129° |
| 2026-04-25 18:41 | 20.80142 | -28.75571 | 33034 ft | 556 kts | 129° |
| 2026-04-25 18:42 | 20.76397 | -28.69992 | 33062 ft | 555 kts | 129° |
| 2026-04-25 18:42 | 20.71165 | -28.62209 | 33065 ft | 555 kts | 129° |
| 2026-04-25 18:43 | 20.66661 | -28.55518 | 33057 ft | 555 kts | 129° |
| 2026-04-25 18:43 | 20.62157 | -28.48833 | 33057 ft | 554 kts | 129° |
| 2026-04-25 18:44 | 20.57657 | -28.42161 | 33058 ft | 554 kts | 129° |
| 2026-04-25 18:44 | 20.53156 | -28.35496 | 33047 ft | 553 kts | 129° |
| 2026-04-25 18:45 | 20.48695 | -28.28898 | 33048 ft | 552 kts | 129° |
| 2026-04-25 18:45 | 20.44200 | -28.22257 | 33052 ft | 552 kts | 129° |
| 2026-04-25 18:46 | 20.39706 | -28.15626 | 33050 ft | 552 kts | 129° |
| 2026-04-25 18:46 | 20.35211 | -28.09000 | 33050 ft | 552 kts | 129° |
| 2026-04-25 18:47 | 20.30713 | -28.02377 | 33040 ft | 551 kts | 129° |
| 2026-04-25 18:47 | 20.26250 | -27.95813 | 33042 ft | 551 kts | 129° |
| 2026-04-25 18:48 | 20.21754 | -27.89210 | 33050 ft | 550 kts | 129° |
| 2026-04-25 18:48 | 20.17257 | -27.82611 | 33042 ft | 550 kts | 129° |
| 2026-04-25 18:49 | 20.12762 | -27.76023 | 33050 ft | 550 kts | 129° |
| 2026-04-25 18:49 | 20.08261 | -27.69433 | 33038 ft | 550 kts | 129° |
| 2026-04-25 18:50 | 20.03794 | -27.62901 | 33044 ft | 549 kts | 129° |
| 2026-04-25 18:50 | 19.99298 | -27.56332 | 33040 ft | 549 kts | 129° |
| 2026-04-25 18:51 | 19.95531 | -27.50836 | 33041 ft | 549 kts | 129° |
| 2026-04-25 18:51 | 19.90305 | -27.43217 | 33039 ft | 549 kts | 129° |
| 2026-04-25 18:52 | 19.85801 | -27.36661 | 33034 ft | 549 kts | 129° |
| 2026-04-25 18:52 | 19.81332 | -27.30160 | 33034 ft | 548 kts | 129° |
| 2026-04-25 18:53 | 19.76837 | -27.23628 | 33035 ft | 548 kts | 129° |
| 2026-04-25 18:53 | 19.72336 | -27.17098 | 33041 ft | 548 kts | 129° |
| 2026-04-25 18:54 | 19.65589 | -27.07320 | 33034 ft | 548 kts | 129° |
| 2026-04-25 18:55 | 19.61088 | -27.00805 | 33029 ft | 547 kts | 129° |
| 2026-04-25 18:55 | 19.56618 | -26.94344 | 33027 ft | 547 kts | 129° |
| 2026-04-25 18:56 | 19.52121 | -26.87848 | 33032 ft | 546 kts | 129° |
| 2026-04-25 18:56 | 19.47625 | -26.81361 | 33034 ft | 546 kts | 129° |
| 2026-04-25 18:57 | 19.43123 | -26.74873 | 33032 ft | 546 kts | 129° |
| 2026-04-25 18:57 | 19.38619 | -26.68390 | 33033 ft | 546 kts | 129° |
| 2026-04-25 18:58 | 19.34144 | -26.61954 | 33030 ft | 546 kts | 129° |
| 2026-04-25 18:58 | 19.27381 | -26.52240 | 33032 ft | 547 kts | 129° |
| 2026-04-25 18:59 | 19.18348 | -26.39290 | 33024 ft | 547 kts | 129° |
| 2026-04-25 19:00 | 19.11598 | -26.29629 | 33011 ft | 547 kts | 129° |
| 2026-04-25 19:01 | 19.04824 | -26.19946 | 33022 ft | 545 kts | 129° |
| 2026-04-25 19:01 | 19.00317 | -26.13510 | 33021 ft | 545 kts | 129° |
| 2026-04-25 19:02 | 18.93559 | -26.03866 | 33021 ft | 544 kts | 129° |
| 2026-04-25 19:03 | 18.87606 | -25.95291 | 33023 ft | 544 kts | 129° |
| 2026-04-25 19:03 | 18.82430 | -25.87814 | 33015 ft | 541 kts | 129° |
| 2026-04-25 19:04 | 18.75778 | -25.78229 | 33021 ft | 538 kts | 129° |
| 2026-04-25 19:05 | 18.66959 | -25.65555 | 33017 ft | 537 kts | 129° |
| 2026-04-25 19:06 | 18.62534 | -25.59204 | 33020 ft | 538 kts | 129° |
| 2026-04-25 19:06 | 18.55895 | -25.49685 | 33016 ft | 536 kts | 129° |
| 2026-04-25 19:07 | 18.49270 | -25.40203 | 33013 ft | 535 kts | 129° |
| 2026-04-25 19:08 | 18.42686 | -25.30792 | 33013 ft | 534 kts | 129° |
| 2026-04-25 19:09 | 18.34602 | -25.19258 | 32992 ft | 534 kts | 129° |
| 2026-04-25 19:10 | 18.27255 | -25.08790 | 33003 ft | 532 kts | 129° |
| 2026-04-25 19:10 | 18.22888 | -25.02578 | 33008 ft | 531 kts | 129° |
| 2026-04-25 19:11 | 18.18494 | -24.96333 | 33006 ft | 531 kts | 129° |
| 2026-04-25 19:11 | 18.14104 | -24.90099 | 33005 ft | 530 kts | 129° |
| 2026-04-25 19:12 | 18.09713 | -24.83870 | 33006 ft | 530 kts | 129° |
| 2026-04-25 19:12 | 18.05350 | -24.77686 | 33004 ft | 530 kts | 128° |
| 2026-04-25 19:13 | 18.00964 | -24.71475 | 32999 ft | 529 kts | 129° |
| 2026-04-25 19:13 | 17.96578 | -24.65271 | 32996 ft | 529 kts | 129° |
| 2026-04-25 19:14 | 17.92192 | -24.59072 | 32996 ft | 529 kts | 129° |
| 2026-04-25 19:14 | 17.87838 | -24.52923 | 32995 ft | 528 kts | 129° |
| 2026-04-25 19:15 | 17.83452 | -24.46732 | 32992 ft | 528 kts | 129° |
| 2026-04-25 19:15 | 17.79067 | -24.40549 | 33004 ft | 528 kts | 129° |
| 2026-04-25 19:16 | 17.74685 | -24.34371 | 32989 ft | 527 kts | 129° |
| 2026-04-25 19:16 | 17.70326 | -24.28246 | 32988 ft | 527 kts | 129° |
| 2026-04-25 19:17 | 17.65911 | -24.22117 | 32989 ft | 527 kts | 129° |
| 2026-04-25 19:17 | 17.61487 | -24.15993 | 32989 ft | 527 kts | 129° |
| 2026-04-25 19:18 | 17.57073 | -24.09871 | 32989 ft | 527 kts | 129° |
| 2026-04-25 19:18 | 17.52662 | -24.03752 | 32993 ft | 526 kts | 129° |
| 2026-04-25 19:19 | 17.48288 | -23.97689 | 32996 ft | 525 kts | 129° |
| 2026-04-25 19:19 | 17.43883 | -23.91588 | 32985 ft | 524 kts | 129° |
| 2026-04-25 19:20 | 17.39486 | -23.85505 | 32987 ft | 524 kts | 129° |
| 2026-04-25 19:20 | 17.35084 | -23.79421 | 32976 ft | 524 kts | 129° |
| 2026-04-25 19:21 | 17.30682 | -23.73342 | 32998 ft | 524 kts | 130° |
| 2026-04-25 19:21 | 17.24107 | -23.64272 | 32982 ft | 523 kts | 129° |
| 2026-04-25 19:22 | 17.19711 | -23.58214 | 32970 ft | 523 kts | 129° |
| 2026-04-25 19:23 | 17.13112 | -23.49131 | 32982 ft | 522 kts | 129° |
| 2026-04-25 19:23 | 17.06513 | -23.40060 | 32977 ft | 522 kts | 130° |
| 2026-04-25 19:24 | 17.02114 | -23.34018 | 32971 ft | 522 kts | 130° |
| 2026-04-25 19:25 | 16.93345 | -23.21990 | 32962 ft | 522 kts | 129° |
| 2026-04-25 19:25 | 16.88944 | -23.15961 | 32960 ft | 522 kts | 129° |
| 2026-04-25 19:26 | 16.84544 | -23.09936 | 32952 ft | 522 kts | 129° |
| 2026-04-25 19:26 | 16.80143 | -23.03911 | 32936 ft | 522 kts | 129° |
| 2026-04-25 19:27 | 16.76488 | -22.98900 | 32942 ft | 522 kts | 128° |
| 2026-04-25 19:27 | 16.72290 | -22.91255 | 32943 ft | 525 kts | 114° |
| 2026-04-25 19:28 | 16.69808 | -22.84101 | 32948 ft | 525 kts | 110° |
| 2026-04-25 19:28 | 16.67356 | -22.76921 | 32943 ft | 526 kts | 110° |
| 2026-04-25 19:29 | 16.64856 | -22.69744 | 32944 ft | 526 kts | 111° |
| 2026-04-25 19:29 | 16.62348 | -22.62579 | 32946 ft | 526 kts | 111° |
| 2026-04-25 19:30 | 16.59856 | -22.55457 | 32955 ft | 526 kts | 111° |
| 2026-04-25 19:30 | 16.57347 | -22.48289 | 32947 ft | 526 kts | 111° |
| 2026-04-25 19:31 | 16.54835 | -22.41118 | 32949 ft | 526 kts | 111° |
| 2026-04-25 19:31 | 16.52322 | -22.33955 | 32941 ft | 527 kts | 111° |
| 2026-04-25 19:32 | 16.49821 | -22.26835 | 32948 ft | 527 kts | 111° |
| 2026-04-25 19:32 | 16.48138 | -22.22049 | 32941 ft | 526 kts | 111° |
| 2026-04-25 19:33 | 16.44802 | -22.12571 | 32952 ft | 524 kts | 111° |
| 2026-04-25 19:33 | 16.42290 | -22.05445 | 32949 ft | 524 kts | 111° |
| 2026-04-25 19:34 | 16.39769 | -21.98302 | 32951 ft | 523 kts | 111° |
| 2026-04-25 19:34 | 16.37273 | -21.91237 | 32952 ft | 523 kts | 111° |
| 2026-04-25 19:35 | 16.34761 | -21.84133 | 32950 ft | 523 kts | 111° |
| 2026-04-25 19:35 | 16.32247 | -21.77028 | 32960 ft | 524 kts | 111° |
| 2026-04-25 19:36 | 16.29726 | -21.69908 | 32954 ft | 524 kts | 111° |
| 2026-04-25 19:36 | 16.27189 | -21.62792 | 32952 ft | 525 kts | 111° |
| 2026-04-25 19:37 | 16.24625 | -21.55680 | 32927 ft | 525 kts | 111° |
| 2026-04-25 19:37 | 16.22077 | -21.48616 | 32937 ft | 524 kts | 111° |
| 2026-04-25 19:38 | 16.19525 | -21.41528 | 32942 ft | 523 kts | 111° |
| 2026-04-25 19:38 | 16.16976 | -21.34451 | 32941 ft | 523 kts | 111° |
| 2026-04-25 19:39 | 16.14421 | -21.27364 | 32940 ft | 522 kts | 111° |
| 2026-04-25 19:39 | 16.11894 | -21.20364 | 32938 ft | 522 kts | 111° |
| 2026-04-25 19:40 | 16.09330 | -21.13273 | 32945 ft | 522 kts | 111° |
| 2026-04-25 19:40 | 16.06770 | -21.06198 | 32939 ft | 523 kts | 111° |
| 2026-04-25 19:41 | 16.04207 | -20.99123 | 32936 ft | 523 kts | 111° |
| 2026-04-25 19:41 | 16.02506 | -20.94433 | 32932 ft | 524 kts | 111° |
| 2026-04-25 19:42 | 15.99082 | -20.85004 | 32923 ft | 524 kts | 111° |
| 2026-04-25 19:42 | 15.96510 | -20.77928 | 32930 ft | 523 kts | 111° |
| 2026-04-25 19:43 | 15.93938 | -20.70863 | 32931 ft | 522 kts | 111° |
| 2026-04-25 19:43 | 15.91366 | -20.63805 | 32930 ft | 522 kts | 111° |
| 2026-04-25 19:44 | 15.88795 | -20.56758 | 32925 ft | 522 kts | 111° |
| 2026-04-25 19:44 | 15.86222 | -20.49711 | 32929 ft | 521 kts | 111° |
| 2026-04-25 19:45 | 15.83666 | -20.42720 | 32931 ft | 522 kts | 111° |
| 2026-04-25 19:45 | 15.81087 | -20.35673 | 32924 ft | 522 kts | 111° |
| 2026-04-25 19:46 | 15.78506 | -20.28630 | 32925 ft | 522 kts | 111° |
| 2026-04-25 19:46 | 15.75921 | -20.21580 | 32922 ft | 522 kts | 111° |
| 2026-04-25 19:47 | 15.73352 | -20.14580 | 32918 ft | 522 kts | 111° |
| 2026-04-25 19:47 | 15.70767 | -20.07541 | 32918 ft | 521 kts | 111° |
| 2026-04-25 19:48 | 15.68185 | -20.00521 | 32916 ft | 520 kts | 111° |
| 2026-04-25 19:48 | 15.65644 | -19.93495 | 32917 ft | 520 kts | 110° |
| 2026-04-25 19:49 | 15.63975 | -19.88792 | 32914 ft | 519 kts | 110° |
| 2026-04-25 19:49 | 15.60655 | -19.79436 | 32912 ft | 519 kts | 110° |
| 2026-04-25 19:50 | 15.56916 | -19.68959 | 32912 ft | 519 kts | 110° |
| 2026-04-25 19:51 | 15.54407 | -19.61942 | 32910 ft | 519 kts | 110° |
| 2026-04-25 19:51 | 15.51897 | -19.54926 | 32909 ft | 519 kts | 110° |
| 2026-04-25 19:52 | 15.49386 | -19.47910 | 32914 ft | 519 kts | 110° |
| 2026-04-25 19:52 | 15.46869 | -19.40891 | 32912 ft | 519 kts | 111° |
| 2026-04-25 19:53 | 15.43970 | -19.34105 | 32914 ft | 518 kts | 117° |
| 2026-04-25 19:53 | 15.40627 | -19.27511 | 32907 ft | 517 kts | 118° |
| 2026-04-25 19:54 | 15.37298 | -19.20914 | 32904 ft | 516 kts | 118° |
| 2026-04-25 19:54 | 15.34058 | -19.14290 | 32908 ft | 515 kts | 117° |
| 2026-04-25 19:55 | 15.30851 | -19.07644 | 32905 ft | 515 kts | 117° |
| 2026-04-25 19:55 | 15.27672 | -19.01053 | 32904 ft | 515 kts | 117° |
| 2026-04-25 19:56 | 15.24464 | -18.94423 | 32897 ft | 515 kts | 117° |
| 2026-04-25 19:56 | 15.21251 | -18.87796 | 32893 ft | 513 kts | 117° |
| 2026-04-25 19:57 | 15.18100 | -18.81306 | 32369 ft | 499 kts | 117° |
| 2026-04-25 19:57 | 15.16550 | -18.78115 | 31933 ft | 494 kts | 117° |
| 2026-04-25 19:57 | 15.15014 | -18.74954 | 31476 ft | 489 kts | 116° |
| 2026-04-25 19:57 | 15.13491 | -18.71821 | 31016 ft | 485 kts | 116° |
| 2026-04-25 19:58 | 15.11982 | -18.68718 | 30554 ft | 481 kts | 116° |
| 2026-04-25 19:58 | 15.10503 | -18.65678 | 30096 ft | 478 kts | 116° |
| 2026-04-25 19:58 | 15.09014 | -18.62618 | 29573 ft | 475 kts | 116° |
| 2026-04-25 19:58 | 15.07533 | -18.59574 | 29059 ft | 471 kts | 116° |
| 2026-04-25 19:59 | 15.06062 | -18.56555 | 28576 ft | 467 kts | 116° |
| 2026-04-25 19:59 | 15.04608 | -18.53570 | 28107 ft | 463 kts | 116° |
| 2026-04-25 19:59 | 15.03166 | -18.50611 | 27649 ft | 459 kts | 116° |
| 2026-04-25 19:59 | 15.01729 | -18.47665 | 27186 ft | 456 kts | 116° |
| 2026-04-25 20:00 | 15.00310 | -18.44756 | 26742 ft | 452 kts | 116° |
| 2026-04-25 20:00 | 14.99832 | -18.43776 | 26584 ft | 451 kts | 116° |
| 2026-04-25 20:00 | 14.97496 | -18.38991 | 25838 ft | 445 kts | 116° |
| 2026-04-25 20:00 | 14.96105 | -18.36142 | 25388 ft | 443 kts | 116° |
| 2026-04-25 20:01 | 14.93364 | -18.30532 | 24497 ft | 438 kts | 117° |
| 2026-04-25 20:01 | 14.91995 | -18.27731 | 24053 ft | 435 kts | 117° |
| 2026-04-25 20:01 | 14.90634 | -18.24949 | 23608 ft | 433 kts | 117° |
| 2026-04-25 20:02 | 14.89277 | -18.22176 | 23127 ft | 430 kts | 117° |
| 2026-04-25 20:02 | 14.87932 | -18.19428 | 22658 ft | 427 kts | 117° |
| 2026-04-25 20:02 | 14.86599 | -18.16704 | 22219 ft | 423 kts | 117° |
| 2026-04-25 20:02 | 14.85276 | -18.14005 | 21795 ft | 419 kts | 117° |
| 2026-04-25 20:03 | 14.83965 | -18.11329 | 21363 ft | 416 kts | 117° |
| 2026-04-25 20:03 | 14.82662 | -18.08670 | 20945 ft | 413 kts | 118° |
| 2026-04-25 20:03 | 14.81384 | -18.06065 | 20533 ft | 410 kts | 118° |
| 2026-04-25 20:03 | 14.80099 | -18.03446 | 20123 ft | 408 kts | 118° |
| 2026-04-25 20:04 | 14.78820 | -18.00839 | 19714 ft | 406 kts | 118° |
| 2026-04-25 20:04 | 14.77547 | -17.98245 | 19272 ft | 404 kts | 118° |
| 2026-04-25 20:04 | 14.76279 | -17.95663 | 18856 ft | 403 kts | 118° |
| 2026-04-25 20:04 | 14.75013 | -17.93086 | 18434 ft | 402 kts | 118° |
| 2026-04-25 20:05 | 14.73748 | -17.90510 | 17976 ft | 401 kts | 118° |
| 2026-04-25 20:05 | 14.72489 | -17.87948 | 17518 ft | 399 kts | 118° |
| 2026-04-25 20:05 | 14.71235 | -17.85398 | 17085 ft | 397 kts | 118° |
| 2026-04-25 20:05 | 14.69989 | -17.82866 | 16661 ft | 394 kts | 118° |
| 2026-04-25 20:06 | 14.68750 | -17.80347 | 16223 ft | 392 kts | 119° |
| 2026-04-25 20:06 | 14.67523 | -17.77853 | 15911 ft | 386 kts | 119° |
| 2026-04-25 20:06 | 14.66344 | -17.75456 | 15854 ft | 372 kts | 119° |
| 2026-04-25 20:06 | 14.65171 | -17.73074 | 15851 ft | 373 kts | 119° |
| 2026-04-25 20:07 | 14.63993 | -17.70686 | 15849 ft | 373 kts | 119° |
| 2026-04-25 20:07 | 14.62821 | -17.68309 | 15841 ft | 370 kts | 119° |
| 2026-04-25 20:07 | 14.61657 | -17.65949 | 15832 ft | 367 kts | 119° |
| 2026-04-25 20:07 | 14.60499 | -17.63601 | 15841 ft | 367 kts | 119° |
| 2026-04-25 20:08 | 14.59342 | -17.61256 | 15837 ft | 367 kts | 119° |
| 2026-04-25 20:08 | 14.58184 | -17.58910 | 15841 ft | 367 kts | 119° |
| 2026-04-25 20:08 | 14.57026 | -17.56564 | 15836 ft | 367 kts | 119° |
| 2026-04-25 20:08 | 14.55865 | -17.54212 | 15842 ft | 368 kts | 119° |
| 2026-04-25 20:09 | 14.54703 | -17.51859 | 15846 ft | 368 kts | 119° |
| 2026-04-25 20:09 | 14.53539 | -17.49502 | 15844 ft | 369 kts | 119° |
| 2026-04-25 20:09 | 14.52387 | -17.47170 | 15841 ft | 370 kts | 119° |
| 2026-04-25 20:09 | 14.51220 | -17.44807 | 15840 ft | 369 kts | 119° |
| 2026-04-25 20:10 | 14.50441 | -17.43231 | 15830 ft | 361 kts | 119° |
| 2026-04-25 20:10 | 14.48975 | -17.40262 | 15820 ft | 341 kts | 119° |
| 2026-04-25 20:10 | 14.47949 | -17.38122 | 15814 ft | 326 kts | 113° |
| 2026-04-25 20:10 | 14.47468 | -17.35824 | 15844 ft | 334 kts | 90° |
| 2026-04-25 20:11 | 14.47881 | -17.33462 | 15846 ft | 335 kts | 66° |
| 2026-04-25 20:11 | 14.49125 | -17.31467 | 15836 ft | 329 kts | 43° |
| 2026-04-25 20:11 | 14.50974 | -17.30155 | 15841 ft | 320 kts | 18° |
| 2026-04-25 20:11 | 14.53082 | -17.29716 | 15863 ft | 312 kts | 355° |
| 2026-04-25 20:12 | 14.55215 | -17.30000 | 15844 ft | 307 kts | 340° |
| 2026-04-25 20:12 | 14.57095 | -17.30964 | 15845 ft | 301 kts | 316° |
| 2026-04-25 20:12 | 14.58388 | -17.32620 | 15860 ft | 297 kts | 293° |
| 2026-04-25 20:12 | 14.58649 | -17.33282 | 15856 ft | 296 kts | 285° |
| 2026-04-25 20:13 | 14.58468 | -17.36728 | 15861 ft | 297 kts | 245° |
| 2026-04-25 20:13 | 14.57282 | -17.38473 | 15871 ft | 300 kts | 229° |
| 2026-04-25 20:13 | 14.55790 | -17.39994 | 15859 ft | 303 kts | 225° |
| 2026-04-25 20:13 | 14.54768 | -17.40966 | 15864 ft | 303 kts | 224° |
| 2026-04-25 20:14 | 14.53203 | -17.42416 | 15851 ft | 300 kts | 224° |
| 2026-04-25 20:14 | 14.51654 | -17.43838 | 15847 ft | 296 kts | 224° |
| 2026-04-25 20:14 | 14.49614 | -17.45711 | 15852 ft | 297 kts | 224° |
| 2026-04-25 20:14 | 14.48042 | -17.47073 | 15843 ft | 294 kts | 216° |
| 2026-04-25 20:15 | 14.46797 | -17.47693 | 15853 ft | 300 kts | 199° |
| 2026-04-25 20:15 | 14.44645 | -17.47909 | 15861 ft | 315 kts | 180° |
| 2026-04-25 20:15 | 14.42503 | -17.47766 | 15856 ft | 309 kts | 184° |
| 2026-04-25 20:15 | 14.40427 | -17.48152 | 15850 ft | 300 kts | 203° |
| 2026-04-25 20:16 | 14.38483 | -17.48938 | 15862 ft | 303 kts | 205° |
| 2026-04-25 20:16 | 14.36471 | -17.49738 | 15892 ft | 323 kts | 204° |
| 2026-04-25 20:16 | 14.34289 | -17.50602 | 15864 ft | 342 kts | 204° |
| 2026-04-25 20:16 | 14.32071 | -17.51483 | 15851 ft | 344 kts | 204° |
| 2026-04-25 20:17 | 14.29821 | -17.52328 | 15852 ft | 343 kts | 198° |
| 2026-04-25 20:17 | 14.27433 | -17.52627 | 15859 ft | 352 kts | 180° |
| 2026-04-25 20:17 | 14.24998 | -17.52172 | 15858 ft | 362 kts | 164° |
| 2026-04-25 20:17 | 14.22747 | -17.51042 | 15855 ft | 367 kts | 149° |
| 2026-04-25 20:18 | 14.20804 | -17.49346 | 15844 ft | 366 kts | 138° |
| 2026-04-25 20:18 | 14.19062 | -17.47447 | 15606 ft | 363 kts | 135° |
| 2026-04-25 20:18 | 14.17388 | -17.45526 | 15335 ft | 357 kts | 134° |
| 2026-04-25 20:18 | 14.15766 | -17.43646 | 15429 ft | 331 kts | 134° |
| 2026-04-25 20:19 | 14.14243 | -17.41873 | 14945 ft | 335 kts | 134° |
| 2026-04-25 20:19 | 14.12688 | -17.40054 | 14409 ft | 334 kts | 134° |
| 2026-04-25 20:19 | 14.11198 | -17.38308 | 13921 ft | 316 kts | 134° |
| 2026-04-25 20:19 | 14.09781 | -17.36639 | 13356 ft | 303 kts | 133° |
| 2026-04-25 20:20 | 14.08417 | -17.35024 | 12657 ft | 295 kts | 134° |
| 2026-04-25 20:20 | 14.07082 | -17.33434 | 12226 ft | 297 kts | 133° |
| 2026-04-25 20:20 | 14.05684 | -17.31918 | 12044 ft | 294 kts | 144° |
| 2026-04-25 20:20 | 14.04000 | -17.30765 | 11725 ft | 286 kts | 153° |
| 2026-04-25 20:21 | 14.02236 | -17.29779 | 11326 ft | 291 kts | 154° |
| 2026-04-25 20:21 | 14.00462 | -17.28789 | 11028 ft | 287 kts | 153° |
| 2026-04-25 20:21 | 13.98722 | -17.27825 | 10779 ft | 281 kts | 153° |
| 2026-04-25 20:21 | 13.97013 | -17.26884 | 10469 ft | 277 kts | 153° |
| 2026-04-25 20:22 | 13.95310 | -17.25958 | 10091 ft | 277 kts | 153° |
| 2026-04-25 20:22 | 13.94181 | -17.25350 | 9842 ft | 276 kts | 153° |
| 2026-04-25 20:22 | 13.91893 | -17.24144 | 9229 ft | 279 kts | 153° |
| 2026-04-25 20:22 | 13.90147 | -17.23385 | 8970 ft | 278 kts | 168° |
| 2026-04-25 20:23 | 13.88212 | -17.23363 | 8869 ft | 279 kts | 191° |
| 2026-04-25 20:23 | 13.86340 | -17.23849 | 8861 ft | 278 kts | 194° |
| 2026-04-25 20:23 | 13.84457 | -17.24337 | 8860 ft | 279 kts | 193° |
| 2026-04-25 20:23 | 13.82576 | -17.24800 | 8829 ft | 275 kts | 189° |
| 2026-04-25 20:24 | 13.80703 | -17.24691 | 8855 ft | 272 kts | 161° |
| 2026-04-25 20:24 | 13.78943 | -17.23934 | 8861 ft | 277 kts | 155° |
| 2026-04-25 20:24 | 13.77360 | -17.22815 | 8849 ft | 280 kts | 129° |
| 2026-04-25 20:24 | 13.76564 | -17.21004 | 8862 ft | 284 kts | 96° |
| 2026-04-25 20:25 | 13.76842 | -17.19027 | 8863 ft | 288 kts | 66° |
| 2026-04-25 20:25 | 13.77963 | -17.17325 | 8826 ft | 288 kts | 45° |
| 2026-04-25 20:25 | 13.79546 | -17.16084 | 8732 ft | 285 kts | 27° |
| 2026-04-25 20:25 | 13.81408 | -17.15450 | 8564 ft | 282 kts | 11° |
| 2026-04-25 20:26 | 13.83349 | -17.15145 | 8407 ft | 282 kts | 7° |
| 2026-04-25 20:26 | 13.85294 | -17.14903 | 8322 ft | 280 kts | 7° |
| 2026-04-25 20:26 | 13.87217 | -17.14664 | 8202 ft | 278 kts | 7° |
| 2026-04-25 20:26 | 13.89141 | -17.14414 | 8061 ft | 279 kts | 7° |
| 2026-04-25 20:27 | 13.91058 | -17.14152 | 7959 ft | 277 kts | 7° |
| 2026-04-25 20:27 | 13.92968 | -17.13882 | 7848 ft | 276 kts | 8° |
| 2026-04-25 20:27 | 13.94869 | -17.13605 | 7741 ft | 275 kts | 8° |
| 2026-04-25 20:27 | 13.96758 | -17.13325 | 7642 ft | 274 kts | 8° |
| 2026-04-25 20:28 | 13.98644 | -17.13041 | 7536 ft | 273 kts | 8° |
| 2026-04-25 20:28 | 14.00499 | -17.12759 | 7411 ft | 273 kts | 8° |
| 2026-04-25 20:28 | 14.02365 | -17.12474 | 7282 ft | 270 kts | 8° |
| 2026-04-25 20:28 | 14.04208 | -17.12191 | 6978 ft | 267 kts | 8° |
| 2026-04-25 20:29 | 14.06044 | -17.11908 | 6614 ft | 266 kts | 8° |
| 2026-04-25 20:29 | 14.07852 | -17.11629 | 6338 ft | 260 kts | 8° |
| 2026-04-25 20:29 | 14.09629 | -17.11355 | 5979 ft | 258 kts | 7° |
| 2026-04-25 20:29 | 14.11388 | -17.11083 | 5658 ft | 254 kts | 8° |
| 2026-04-25 20:30 | 14.13118 | -17.10815 | 5368 ft | 249 kts | 7° |
| 2026-04-25 20:30 | 14.14812 | -17.10553 | 4998 ft | 247 kts | 8° |
| 2026-04-25 20:30 | 14.16540 | -17.10287 | 4516 ft | 256 kts | 8° |
| 2026-04-25 20:30 | 14.18290 | -17.10016 | 4386 ft | 254 kts | 8° |
| 2026-04-25 20:31 | 14.20020 | -17.09749 | 4248 ft | 254 kts | 8° |
| 2026-04-25 20:31 | 14.21769 | -17.09478 | 4031 ft | 256 kts | 8° |
| 2026-04-25 20:31 | 14.23522 | -17.09206 | 3947 ft | 251 kts | 8° |
| 2026-04-25 20:31 | 14.25219 | -17.08943 | 3894 ft | 243 kts | 8° |
| 2026-04-25 20:32 | 14.26874 | -17.08686 | 3839 ft | 238 kts | 8° |
| 2026-04-25 20:32 | 14.28521 | -17.08431 | 3859 ft | 243 kts | 8° |
| 2026-04-25 20:32 | 14.30217 | -17.08168 | 3841 ft | 250 kts | 8° |
| 2026-04-25 20:32 | 14.31930 | -17.07903 | 3842 ft | 248 kts | 8° |
| 2026-04-25 20:33 | 14.33633 | -17.07639 | 3834 ft | 247 kts | 8° |
| 2026-04-25 20:33 | 14.35308 | -17.07379 | 3829 ft | 246 kts | 8° |
| 2026-04-25 20:33 | 14.37016 | -17.07129 | 3839 ft | 244 kts | 5° |
| 2026-04-25 20:33 | 14.38135 | -17.07047 | 3827 ft | 244 kts | 2° |
| 2026-04-25 20:34 | 14.40369 | -17.07026 | 3859 ft | 239 kts | 359° |
| 2026-04-25 20:34 | 14.42004 | -17.07042 | 3830 ft | 229 kts | 359° |
| 2026-04-25 20:34 | 14.43513 | -17.07058 | 3815 ft | 205 kts | 359° |
| 2026-04-25 20:34 | 14.44856 | -17.07072 | 3826 ft | 183 kts | 360° |
| 2026-04-25 20:35 | 14.46138 | -17.07084 | 3830 ft | 187 kts | 360° |
| 2026-04-25 20:35 | 14.47459 | -17.07097 | 3620 ft | 189 kts | 360° |
| 2026-04-25 20:35 | 14.48753 | -17.07110 | 3386 ft | 181 kts | 0° |
| 2026-04-25 20:35 | 14.49985 | -17.07121 | 3185 ft | 172 kts | 360° |
| 2026-04-25 20:36 | 14.51186 | -17.07133 | 2982 ft | 173 kts | 1° |
| 2026-04-25 20:36 | 14.52326 | -17.07144 | 2755 ft | 161 kts | 1° |
| 2026-04-25 20:36 | 14.53402 | -17.07153 | 2527 ft | 145 kts | 360° |
| 2026-04-25 20:36 | 14.54372 | -17.07163 | 2373 ft | 140 kts | 1° |
| 2026-04-25 20:37 | 14.55335 | -17.07170 | 2194 ft | 142 kts | 360° |
| 2026-04-25 20:37 | 14.56357 | -17.07190 | 2013 ft | 150 kts | 2° |
| 2026-04-25 20:37 | 14.57392 | -17.07191 | 1815 ft | 148 kts | 1° |
| 2026-04-25 20:37 | 14.58397 | -17.07201 | 1638 ft | 143 kts | 1° |
| 2026-04-25 20:38 | 14.59392 | -17.07209 | 1468 ft | 141 kts | 1° |
| 2026-04-25 20:38 | 14.60366 | -17.07218 | 1270 ft | 138 kts | 359° |
| 2026-04-25 20:38 | 14.61320 | -17.07228 | 1082 ft | 135 kts | 359° |
| 2026-04-25 20:38 | 14.62235 | -17.07238 | 935 ft | 132 kts | 0° |
| 2026-04-25 20:39 | 14.63153 | -17.07248 | 799 ft | 127 kts | 358° |
| 2026-04-25 20:39 | 14.64018 | -17.07266 | 635 ft | 125 kts | 358° |
| 2026-04-25 20:39 | 14.64884 | -17.07266 | 433 ft | 127 kts | 358° |
| 2026-04-25 20:39 | 14.65495 | -17.07273 | 329 ft | 132 kts | 359° |
| 2026-04-25 20:40 | 14.66604 | -17.07279 | 304 ft | 101 kts | 360° |
| 2026-04-25 20:40 | 14.67186 | -17.07285 | 304 ft | 66 kts | 359° |
| 2026-04-25 20:40 | 14.67532 | -17.07283 | 296 ft | 36 kts | 6° |
| 2026-04-25 20:40 | 14.67731 | -17.07232 | 296 ft | 21 kts | 25° |
| 2026-04-25 20:41 | 14.67792 | -17.07198 | 294 ft | 10 kts | 29° |
| 2026-04-25 20:41 | 14.67846 | -17.07136 | 289 ft | 13 kts | 72° |
| 2026-04-25 20:41 | 14.67831 | -17.07111 | 295 ft | 4 kts | 140° |
| 2026-04-25 20:41 | 14.67798 | -17.07101 | 293 ft | 6 kts | 175° |
| 2026-04-25 20:42 | 14.67753 | -17.07097 | 292 ft | 7 kts | 175° |
| 2026-04-25 20:42 | 14.67696 | -17.07096 | 294 ft | 9 kts | 180° |
| 2026-04-25 20:42 | 14.67619 | -17.07096 | 300 ft | 12 kts | 180° |
| 2026-04-25 20:42 | 14.67596 | -17.07096 | 299 ft | 3 kts | 180° |
| 2026-04-25 20:43 | 14.67568 | -17.07096 | 297 ft | 0 kts | 180° |
| 2026-04-25 20:43 | 14.67555 | -17.07091 | 300 ft | 3 kts | 148° |
| 2026-04-25 20:43 | 14.67544 | -17.07065 | 300 ft | 5 kts | 110° |
| 2026-04-25 20:43 | 14.67530 | -17.07017 | 296 ft | 9 kts | 109° |
| 2026-04-25 20:44 | 14.67476 | -17.06985 | 301 ft | 11 kts | 174° |
| 2026-04-25 20:44 | 14.67395 | -17.06957 | 301 ft | 15 kts | 148° |
| 2026-04-25 20:44 | 14.67301 | -17.06895 | 301 ft | 17 kts | 147° |
| 2026-04-25 20:44 | 14.67243 | -17.06857 | 302 ft | 8 kts | 147° |
| 2026-04-25 20:45 | 14.67233 | -17.06850 | 301 ft | 2 kts | 147° |
| 2026-04-25 20:45 | 14.67231 | -17.06849 | 300 ft | 0 kts | 147° |